PWSweather.com
Personal Weather Stations
Station Observations
KD5LEN
Ktxnorth1, North Richland Hills, TX 76180

Ktxnorth1North Richland Hills, TX 76180

Lat: 32.885294, Lon: -97.236048

Elevation: 694

Station Type: Vantage Pro 2

http://www.atzer0.net/VWS/root/index.htm

High Low Average
Temperature 55.1°F12.8°C 40.5°F4.7°C 46.3°F7.9°C
Dew Point 32.9°F0.5°C 22.5°F-5.3°C 27.1°F-2.7°C
Winds 19.0 mph 30.6 kmh Calm Calm 5.0 mph S8.0 kmh S
Wind Gusts 21.0 mph33.8 kmh 1.0 mph1.6 kmh 11.0 mph17.7 kmh
Humidity 56% 28% 47%
Pressure 30.28 in1025.4 mb 29.91 in1012.9 mb -
Precipitation 0.00 in0.0 mm - -
Hour Temp Dew Point Humidity Winds Wind Gusts Pressure Precip Precip Rate Daily Precip Total
12:00 AM 55.1°F12.8°C 22.6°F-5.2°C 28% 10.0 mph NW16.1 kmh NW 21.0 mph33.8 kmh 29.91 in1012.9 mb 0.00 in0.0 mm 0.00 in0.0 mm 0.00 in0.0 mm
12:01 AM 55.0°F12.8°C 22.5°F-5.3°C 28% 10.0 mph NNW16.1 kmh NNW 21.0 mph33.8 kmh 29.91 in1012.9 mb 0.00 in0.0 mm 0.00 in0.0 mm 0.00 in0.0 mm
12:04 AM 54.8°F12.7°C 23.2°F-4.9°C 29% 5.0 mph WNW8.0 kmh WNW 19.0 mph30.6 kmh 29.92 in1013.2 mb 0.00 in0.0 mm 0.00 in0.0 mm 0.00 in0.0 mm
12:06 AM 54.6°F12.6°C 23.0°F-5.0°C 29% 19.0 mph N30.6 kmh N 19.0 mph30.6 kmh 29.92 in1013.2 mb 0.00 in0.0 mm 0.00 in0.0 mm 0.00 in0.0 mm
12:08 AM 54.5°F12.5°C 22.9°F-5.1°C 29% 14.0 mph NNW22.5 kmh NNW 20.0 mph32.2 kmh 29.92 in1013.2 mb 0.00 in0.0 mm 0.00 in0.0 mm 0.00 in0.0 mm
12:10 AM 54.3°F12.4°C 22.7°F-5.2°C 29% 13.0 mph NW20.9 kmh NW 21.0 mph33.8 kmh 29.92 in1013.2 mb 0.00 in0.0 mm 0.00 in0.0 mm 0.00 in0.0 mm
12:12 AM 54.1°F12.3°C 23.4°F-4.8°C 30% 6.0 mph NW9.7 kmh NW 21.0 mph33.8 kmh 29.93 in1013.5 mb 0.00 in0.0 mm 0.00 in0.0 mm 0.00 in0.0 mm
12:14 AM 54.0°F12.2°C 23.3°F-4.8°C 30% 15.0 mph NW24.1 kmh NW 21.0 mph33.8 kmh 29.93 in1013.5 mb 0.00 in0.0 mm 0.00 in0.0 mm 0.00 in0.0 mm
12:16 AM 53.8°F12.1°C 23.9°F-4.5°C 31% 11.0 mph NW17.7 kmh NW 21.0 mph33.8 kmh 29.93 in1013.5 mb 0.00 in0.0 mm 0.00 in0.0 mm 0.00 in0.0 mm
12:18 AM 53.7°F12.1°C 23.8°F-4.6°C 31% 13.0 mph NW20.9 kmh NW 21.0 mph33.8 kmh 29.93 in1013.5 mb 0.00 in0.0 mm 0.00 in0.0 mm 0.00 in0.0 mm
12:20 AM 53.5°F11.9°C 23.6°F-4.7°C 31% 13.0 mph NW20.9 kmh NW 21.0 mph33.8 kmh 29.93 in1013.5 mb 0.00 in0.0 mm 0.00 in0.0 mm 0.00 in0.0 mm
12:22 AM 53.3°F11.8°C 24.2°F-4.3°C 32% 14.0 mph NW22.5 kmh NW 21.0 mph33.8 kmh 29.93 in1013.5 mb 0.00 in0.0 mm 0.00 in0.0 mm 0.00 in0.0 mm
12:24 AM 53.1°F11.7°C 24.0°F-4.4°C 32% 11.0 mph NW17.7 kmh NW 21.0 mph33.8 kmh 29.93 in1013.5 mb 0.00 in0.0 mm 0.00 in0.0 mm 0.00 in0.0 mm
12:26 AM 52.9°F11.6°C 23.9°F-4.5°C 32% 11.0 mph NW17.7 kmh NW 21.0 mph33.8 kmh 29.93 in1013.5 mb 0.00 in0.0 mm 0.00 in0.0 mm 0.00 in0.0 mm
12:28 AM 52.8°F11.6°C 24.5°F-4.2°C 33% 18.0 mph NW29.0 kmh NW 21.0 mph33.8 kmh 29.93 in1013.5 mb 0.00 in0.0 mm 0.00 in0.0 mm 0.00 in0.0 mm
12:30 AM 52.6°F11.4°C 24.3°F-4.3°C 33% 12.0 mph NW19.3 kmh NW 21.0 mph33.8 kmh 29.94 in1013.9 mb 0.00 in0.0 mm 0.00 in0.0 mm 0.00 in0.0 mm
12:32 AM 52.5°F11.4°C 25.0°F-3.9°C 34% 12.0 mph NW19.3 kmh NW 21.0 mph33.8 kmh 29.94 in1013.9 mb 0.00 in0.0 mm 0.00 in0.0 mm 0.00 in0.0 mm
12:34 AM 52.3°F11.3°C 24.8°F-4.0°C 34% 12.0 mph NW19.3 kmh NW 13.0 mph20.9 kmh 29.94 in1013.9 mb 0.00 in0.0 mm 0.00 in0.0 mm 0.00 in0.0 mm
12:36 AM 52.2°F11.2°C 24.7°F-4.1°C 34% 10.0 mph NW16.1 kmh NW 14.0 mph22.5 kmh 29.94 in1013.9 mb 0.00 in0.0 mm 0.00 in0.0 mm 0.00 in0.0 mm
12:38 AM 52.0°F11.1°C 25.2°F-3.8°C 35% 13.0 mph NW20.9 kmh NW 14.0 mph22.5 kmh 29.94 in1013.9 mb 0.00 in0.0 mm 0.00 in0.0 mm 0.00 in0.0 mm
12:40 AM 51.9°F11.1°C 25.1°F-3.8°C 35% 11.0 mph NNW17.7 kmh NNW 14.0 mph22.5 kmh 29.94 in1013.9 mb 0.00 in0.0 mm 0.00 in0.0 mm 0.00 in0.0 mm
12:42 AM 51.7°F10.9°C 25.0°F-3.9°C 35% 16.0 mph NW25.7 kmh NW 20.0 mph32.2 kmh 29.94 in1013.9 mb 0.00 in0.0 mm 0.00 in0.0 mm 0.00 in0.0 mm
12:44 AM 51.5°F10.8°C 24.1°F-4.4°C 34% 17.0 mph NW27.4 kmh NW 21.0 mph33.8 kmh 29.94 in1013.9 mb 0.00 in0.0 mm 0.00 in0.0 mm 0.00 in0.0 mm
12:46 AM 51.4°F10.8°C 24.7°F-4.1°C 35% 13.0 mph N20.9 kmh N 21.0 mph33.8 kmh 29.94 in1013.9 mb 0.00 in0.0 mm 0.00 in0.0 mm 0.00 in0.0 mm
12:48 AM 51.2°F10.7°C 24.5°F-4.2°C 35% 14.0 mph NNW22.5 kmh NNW 21.0 mph33.8 kmh 29.94 in1013.9 mb 0.00 in0.0 mm 0.00 in0.0 mm 0.00 in0.0 mm
12:50 AM 51.0°F10.6°C 24.3°F-4.3°C 35% 14.0 mph NW22.5 kmh NW 21.0 mph33.8 kmh 29.94 in1013.9 mb 0.00 in0.0 mm 0.00 in0.0 mm 0.00 in0.0 mm
12:52 AM 50.9°F10.5°C 24.2°F-4.3°C 35% 11.0 mph NW17.7 kmh NW 21.0 mph33.8 kmh 29.94 in1013.9 mb 0.00 in0.0 mm 0.00 in0.0 mm 0.00 in0.0 mm
12:54 AM 50.7°F10.4°C 24.7°F-4.1°C 36% 17.0 mph NW27.4 kmh NW 21.0 mph33.8 kmh 29.94 in1013.9 mb 0.00 in0.0 mm 0.00 in0.0 mm 0.00 in0.0 mm
12:56 AM 50.6°F10.3°C 24.7°F-4.1°C 36% 13.0 mph NNW20.9 kmh NNW 21.0 mph33.8 kmh 29.93 in1013.5 mb 0.00 in0.0 mm 0.00 in0.0 mm 0.00 in0.0 mm
12:58 AM 50.5°F10.3°C 24.6°F-4.1°C 36% 15.0 mph NW24.1 kmh NW 21.0 mph33.8 kmh 29.93 in1013.5 mb 0.00 in0.0 mm 0.00 in0.0 mm 0.00 in0.0 mm
01:00 AM 50.3°F10.2°C 25.0°F-3.9°C 37% 10.0 mph N16.1 kmh N 21.0 mph33.8 kmh 29.94 in1013.9 mb 0.00 in0.0 mm 0.00 in0.0 mm 0.00 in0.0 mm
01:02 AM 50.1°F10.1°C 24.9°F-3.9°C 37% 8.0 mph NW12.9 kmh NW 21.0 mph33.8 kmh 29.94 in1013.9 mb 0.00 in0.0 mm 0.00 in0.0 mm 0.00 in0.0 mm
01:04 AM 50.0°F10.0°C 24.8°F-4.0°C 37% 6.0 mph N9.7 kmh N 19.0 mph30.6 kmh 29.94 in1013.9 mb 0.00 in0.0 mm 0.00 in0.0 mm 0.00 in0.0 mm
01:06 AM 49.9°F9.9°C 24.7°F-4.1°C 37% 11.0 mph NW17.7 kmh NW 19.0 mph30.6 kmh 29.95 in1014.2 mb 0.00 in0.0 mm 0.00 in0.0 mm 0.00 in0.0 mm
01:08 AM 49.8°F9.9°C 24.6°F-4.1°C 37% 11.0 mph NW17.7 kmh NW 19.0 mph30.6 kmh 29.95 in1014.2 mb 0.00 in0.0 mm 0.00 in0.0 mm 0.00 in0.0 mm
01:10 AM 49.7°F9.8°C 25.1°F-3.8°C 38% 12.0 mph NW19.3 kmh NW 19.0 mph30.6 kmh 29.95 in1014.2 mb 0.00 in0.0 mm 0.00 in0.0 mm 0.00 in0.0 mm
01:12 AM 49.6°F9.8°C 25.1°F-3.8°C 38% 6.0 mph NW9.7 kmh NW 19.0 mph30.6 kmh 29.95 in1014.2 mb 0.00 in0.0 mm 0.00 in0.0 mm 0.00 in0.0 mm
01:14 AM 49.5°F9.7°C 25.0°F-3.9°C 38% 15.0 mph NNW24.1 kmh NNW 19.0 mph30.6 kmh 29.95 in1014.2 mb 0.00 in0.0 mm 0.00 in0.0 mm 0.00 in0.0 mm
01:16 AM 49.3°F9.6°C 24.8°F-4.0°C 38% 12.0 mph NW19.3 kmh NW 19.0 mph30.6 kmh 29.95 in1014.2 mb 0.00 in0.0 mm 0.00 in0.0 mm 0.00 in0.0 mm
01:18 AM 49.3°F9.6°C 24.8°F-4.0°C 38% 10.0 mph NW16.1 kmh NW 19.0 mph30.6 kmh 29.96 in1014.6 mb 0.00 in0.0 mm 0.00 in0.0 mm 0.00 in0.0 mm
01:20 AM 49.1°F9.5°C 24.6°F-4.1°C 38% 4.0 mph NW6.4 kmh NW 19.0 mph30.6 kmh 29.96 in1014.6 mb 0.00 in0.0 mm 0.00 in0.0 mm 0.00 in0.0 mm
01:22 AM 49.1°F9.5°C 24.6°F-4.1°C 38% 7.0 mph WNW11.3 kmh WNW 19.0 mph30.6 kmh 29.96 in1014.6 mb 0.00 in0.0 mm 0.00 in0.0 mm 0.00 in0.0 mm
01:24 AM 48.9°F9.4°C 24.4°F-4.2°C 38% 6.0 mph NNW9.7 kmh NNW 19.0 mph30.6 kmh 29.96 in1014.6 mb 0.00 in0.0 mm 0.00 in0.0 mm 0.00 in0.0 mm
01:26 AM 48.9°F9.4°C 24.4°F-4.2°C 38% 8.0 mph NW12.9 kmh NW 19.0 mph30.6 kmh 29.96 in1014.6 mb 0.00 in0.0 mm 0.00 in0.0 mm 0.00 in0.0 mm
01:28 AM 48.8°F9.3°C 24.3°F-4.3°C 38% 15.0 mph N24.1 kmh N 19.0 mph30.6 kmh 29.97 in1014.9 mb 0.00 in0.0 mm 0.00 in0.0 mm 0.00 in0.0 mm
01:30 AM 48.7°F9.3°C 24.3°F-4.3°C 38% 8.0 mph NNW12.9 kmh NNW 19.0 mph30.6 kmh 29.97 in1014.9 mb 0.00 in0.0 mm 0.00 in0.0 mm 0.00 in0.0 mm
01:32 AM 48.6°F9.2°C 24.2°F-4.3°C 38% 8.0 mph NW12.9 kmh NW 19.0 mph30.6 kmh 29.97 in1014.9 mb 0.00 in0.0 mm 0.00 in0.0 mm 0.00 in0.0 mm
01:34 AM 48.5°F9.2°C 24.1°F-4.4°C 38% 6.0 mph NW9.7 kmh NW 12.0 mph19.3 kmh 29.97 in1014.9 mb 0.00 in0.0 mm 0.00 in0.0 mm 0.00 in0.0 mm
01:36 AM 48.4°F9.1°C 24.0°F-4.4°C 38% 11.0 mph NNW17.7 kmh NNW 13.0 mph20.9 kmh 29.98 in1015.2 mb 0.00 in0.0 mm 0.00 in0.0 mm 0.00 in0.0 mm
01:38 AM 48.3°F9.1°C 24.5°F-4.2°C 39% 8.0 mph NNW12.9 kmh NNW 13.0 mph20.9 kmh 29.98 in1015.2 mb 0.00 in0.0 mm 0.00 in0.0 mm 0.00 in0.0 mm
01:40 AM 48.3°F9.1°C 24.5°F-4.2°C 39% 8.0 mph NW12.9 kmh NW 13.0 mph20.9 kmh 29.97 in1014.9 mb 0.00 in0.0 mm 0.00 in0.0 mm 0.00 in0.0 mm
01:42 AM 48.2°F9.0°C 24.4°F-4.2°C 39% 10.0 mph NW16.1 kmh NW 15.0 mph24.1 kmh 29.98 in1015.2 mb 0.00 in0.0 mm 0.00 in0.0 mm 0.00 in0.0 mm
01:44 AM 48.1°F8.9°C 24.3°F-4.3°C 39% 10.0 mph NW16.1 kmh NW 15.0 mph24.1 kmh 29.98 in1015.2 mb 0.00 in0.0 mm 0.00 in0.0 mm 0.00 in0.0 mm
01:46 AM 48.0°F8.9°C 24.2°F-4.3°C 39% 13.0 mph NW20.9 kmh NW 15.0 mph24.1 kmh 29.98 in1015.2 mb 0.00 in0.0 mm 0.00 in0.0 mm 0.00 in0.0 mm
01:48 AM 48.0°F8.9°C 24.2°F-4.3°C 39% 10.0 mph N16.1 kmh N 15.0 mph24.1 kmh 29.98 in1015.2 mb 0.00 in0.0 mm 0.00 in0.0 mm 0.00 in0.0 mm
01:50 AM 47.8°F8.8°C 24.1°F-4.4°C 39% 4.0 mph N6.4 kmh N 15.0 mph24.1 kmh 29.98 in1015.2 mb 0.00 in0.0 mm 0.00 in0.0 mm 0.00 in0.0 mm
01:51 AM 47.9°F8.8°C 24.2°F-4.3°C 39% 10.0 mph NNW16.1 kmh NNW 15.0 mph24.1 kmh 29.98 in1015.2 mb 0.00 in0.0 mm 0.00 in0.0 mm 0.00 in0.0 mm
01:54 AM 47.7°F8.7°C 24.0°F-4.4°C 39% 5.0 mph NNW8.0 kmh NNW 15.0 mph24.1 kmh 29.98 in1015.2 mb 0.00 in0.0 mm 0.00 in0.0 mm 0.00 in0.0 mm
01:56 AM 47.7°F8.7°C 24.0°F-4.4°C 39% 3.0 mph N4.8 kmh N 15.0 mph24.1 kmh 29.98 in1015.2 mb 0.00 in0.0 mm 0.00 in0.0 mm 0.00 in0.0 mm
01:58 AM 47.5°F8.6°C 24.4°F-4.2°C 40% 4.0 mph NNW6.4 kmh NNW 15.0 mph24.1 kmh 29.99 in1015.6 mb 0.00 in0.0 mm 0.00 in0.0 mm 0.00 in0.0 mm
02:00 AM 47.4°F8.6°C 24.3°F-4.3°C 40% 4.0 mph N6.4 kmh N 15.0 mph24.1 kmh 29.99 in1015.6 mb 0.00 in0.0 mm 0.00 in0.0 mm 0.00 in0.0 mm
02:02 AM 47.3°F8.5°C 24.2°F-4.3°C 40% 1.0 mph NW1.6 kmh NW 15.0 mph24.1 kmh 29.99 in1015.6 mb 0.00 in0.0 mm 0.00 in0.0 mm 0.00 in0.0 mm
02:03 AM 47.3°F8.5°C 24.2°F-4.3°C 40% Calm Calm 1.0 mph1.6 kmh 29.99 in1015.6 mb 0.00 in0.0 mm 0.00 in0.0 mm 0.00 in0.0 mm
02:06 AM 47.2°F8.4°C 24.7°F-4.1°C 41% 1.0 mph NNW1.6 kmh NNW 3.0 mph4.8 kmh 29.99 in1015.6 mb 0.00 in0.0 mm 0.00 in0.0 mm 0.00 in0.0 mm
02:08 AM 47.1°F8.4°C 24.6°F-4.1°C 41% 1.0 mph NW1.6 kmh NW 4.0 mph6.4 kmh 30.00 in1015.9 mb 0.00 in0.0 mm 0.00 in0.0 mm 0.00 in0.0 mm
02:10 AM 47.0°F8.3°C 24.5°F-4.2°C 41% 2.0 mph NNE3.2 kmh NNE 5.0 mph8.0 kmh 30.00 in1015.9 mb 0.00 in0.0 mm 0.00 in0.0 mm 0.00 in0.0 mm
02:12 AM 46.9°F8.3°C 24.5°F-4.2°C 41% 2.0 mph NNE3.2 kmh NNE 5.0 mph8.0 kmh 30.00 in1015.9 mb 0.00 in0.0 mm 0.00 in0.0 mm 0.00 in0.0 mm
02:14 AM 46.8°F8.2°C 24.4°F-4.2°C 41% 1.0 mph N1.6 kmh N 5.0 mph8.0 kmh 30.00 in1015.9 mb 0.00 in0.0 mm 0.00 in0.0 mm 0.00 in0.0 mm
02:16 AM 46.7°F8.2°C 24.3°F-4.3°C 41% 2.0 mph N3.2 kmh N 5.0 mph8.0 kmh 30.00 in1015.9 mb 0.00 in0.0 mm 0.00 in0.0 mm 0.00 in0.0 mm
02:18 AM 46.6°F8.1°C 24.2°F-4.3°C 41% 8.0 mph N12.9 kmh N 9.0 mph14.5 kmh 30.01 in1016.3 mb 0.00 in0.0 mm 0.00 in0.0 mm 0.00 in0.0 mm
02:20 AM 46.4°F8.0°C 23.4°F-4.8°C 40% 2.0 mph NNW3.2 kmh NNW 9.0 mph14.5 kmh 30.01 in1016.3 mb 0.00 in0.0 mm 0.00 in0.0 mm 0.00 in0.0 mm
02:22 AM 46.5°F8.1°C 24.1°F-4.4°C 41% 12.0 mph NNW19.3 kmh NNW 17.0 mph27.4 kmh 30.01 in1016.3 mb 0.00 in0.0 mm 0.00 in0.0 mm 0.00 in0.0 mm
02:24 AM 46.4°F8.0°C 23.4°F-4.8°C 40% 6.0 mph N9.7 kmh N 17.0 mph27.4 kmh 30.01 in1016.3 mb 0.00 in0.0 mm 0.00 in0.0 mm 0.00 in0.0 mm
02:26 AM 46.4°F8.0°C 23.4°F-4.8°C 40% 9.0 mph NNW14.5 kmh NNW 17.0 mph27.4 kmh 30.01 in1016.3 mb 0.00 in0.0 mm 0.00 in0.0 mm 0.00 in0.0 mm
02:28 AM 46.4°F8.0°C 23.4°F-4.8°C 40% 2.0 mph NNW3.2 kmh NNW 17.0 mph27.4 kmh 30.02 in1016.6 mb 0.00 in0.0 mm 0.00 in0.0 mm 0.00 in0.0 mm
02:30 AM 46.4°F8.0°C 23.4°F-4.8°C 40% 4.0 mph NW6.4 kmh NW 17.0 mph27.4 kmh 30.02 in1016.6 mb 0.00 in0.0 mm 0.00 in0.0 mm 0.00 in0.0 mm
02:32 AM 46.3°F7.9°C 23.9°F-4.5°C 41% 2.0 mph N3.2 kmh N 17.0 mph27.4 kmh 30.02 in1016.6 mb 0.00 in0.0 mm 0.00 in0.0 mm 0.00 in0.0 mm
02:34 AM 46.2°F7.9°C 23.2°F-4.9°C 40% 5.0 mph N8.0 kmh N 8.0 mph12.9 kmh 30.02 in1016.6 mb 0.00 in0.0 mm 0.00 in0.0 mm 0.00 in0.0 mm
02:36 AM 46.1°F7.8°C 23.1°F-4.9°C 40% 3.0 mph N4.8 kmh N 8.0 mph12.9 kmh 30.03 in1016.9 mb 0.00 in0.0 mm 0.00 in0.0 mm 0.00 in0.0 mm
02:38 AM 46.1°F7.8°C 23.7°F-4.6°C 41% 4.0 mph NNW6.4 kmh NNW 8.0 mph12.9 kmh 30.03 in1016.9 mb 0.00 in0.0 mm 0.00 in0.0 mm 0.00 in0.0 mm
02:40 AM 46.1°F7.8°C 23.7°F-4.6°C 41% 2.0 mph NNW3.2 kmh NNW 8.0 mph12.9 kmh 30.03 in1016.9 mb 0.00 in0.0 mm 0.00 in0.0 mm 0.00 in0.0 mm
02:42 AM 46.0°F7.8°C 23.6°F-4.7°C 41% 5.0 mph NW8.0 kmh NW 8.0 mph12.9 kmh 30.03 in1016.9 mb 0.00 in0.0 mm 0.00 in0.0 mm 0.00 in0.0 mm
02:44 AM 45.9°F7.7°C 23.6°F-4.7°C 41% 4.0 mph NNW6.4 kmh NNW 9.0 mph14.5 kmh 30.03 in1016.9 mb 0.00 in0.0 mm 0.00 in0.0 mm 0.00 in0.0 mm
02:45 AM 45.9°F7.7°C 23.6°F-4.7°C 41% 7.0 mph N11.3 kmh N 11.0 mph17.7 kmh 30.03 in1016.9 mb 0.00 in0.0 mm 0.00 in0.0 mm 0.00 in0.0 mm
02:48 AM 45.8°F7.7°C 23.5°F-4.7°C 41% 8.0 mph NNW12.9 kmh NNW 11.0 mph17.7 kmh 30.03 in1016.9 mb 0.00 in0.0 mm 0.00 in0.0 mm 0.00 in0.0 mm
02:50 AM 45.8°F7.7°C 23.5°F-4.7°C 41% 4.0 mph NNW6.4 kmh NNW 11.0 mph17.7 kmh 30.04 in1017.3 mb 0.00 in0.0 mm 0.00 in0.0 mm 0.00 in0.0 mm
02:52 AM 45.8°F7.7°C 23.5°F-4.7°C 41% 9.0 mph NW14.5 kmh NW 11.0 mph17.7 kmh 30.04 in1017.3 mb 0.00 in0.0 mm 0.00 in0.0 mm 0.00 in0.0 mm
02:54 AM 45.7°F7.6°C 23.4°F-4.8°C 41% 8.0 mph NW12.9 kmh NW 11.0 mph17.7 kmh 30.03 in1016.9 mb 0.00 in0.0 mm 0.00 in0.0 mm 0.00 in0.0 mm
02:56 AM 45.6°F7.6°C 23.3°F-4.8°C 41% 10.0 mph N16.1 kmh N 11.0 mph17.7 kmh 30.04 in1017.3 mb 0.00 in0.0 mm 0.00 in0.0 mm 0.00 in0.0 mm
02:58 AM 45.6°F7.6°C 23.3°F-4.8°C 41% 5.0 mph NNW8.0 kmh NNW 11.0 mph17.7 kmh 30.04 in1017.3 mb 0.00 in0.0 mm 0.00 in0.0 mm 0.00 in0.0 mm
03:00 AM 45.5°F7.5°C 23.2°F-4.9°C 41% 5.0 mph NNW8.0 kmh NNW 11.0 mph17.7 kmh 30.05 in1017.6 mb 0.00 in0.0 mm 0.00 in0.0 mm 0.00 in0.0 mm
03:02 AM 45.4°F7.4°C 23.1°F-4.9°C 41% 8.0 mph NW12.9 kmh NW 11.0 mph17.7 kmh 30.05 in1017.6 mb 0.00 in0.0 mm 0.00 in0.0 mm 0.00 in0.0 mm
03:04 AM 45.4°F7.4°C 23.7°F-4.6°C 42% 6.0 mph N9.7 kmh N 9.0 mph14.5 kmh 30.05 in1017.6 mb 0.00 in0.0 mm 0.00 in0.0 mm 0.00 in0.0 mm
03:06 AM 45.3°F7.4°C 23.6°F-4.7°C 42% 9.0 mph NNW14.5 kmh NNW 11.0 mph17.7 kmh 30.04 in1017.3 mb 0.00 in0.0 mm 0.00 in0.0 mm 0.00 in0.0 mm
03:08 AM 45.3°F7.4°C 23.6°F-4.7°C 42% 5.0 mph NNW8.0 kmh NNW 12.0 mph19.3 kmh 30.04 in1017.3 mb 0.00 in0.0 mm 0.00 in0.0 mm 0.00 in0.0 mm
03:10 AM 45.2°F7.3°C 23.5°F-4.7°C 42% 6.0 mph NNW9.7 kmh NNW 12.0 mph19.3 kmh 30.04 in1017.3 mb 0.00 in0.0 mm 0.00 in0.0 mm 0.00 in0.0 mm
03:12 AM 45.1°F7.3°C 23.4°F-4.8°C 42% 8.0 mph NW12.9 kmh NW 12.0 mph19.3 kmh 30.04 in1017.3 mb 0.00 in0.0 mm 0.00 in0.0 mm 0.00 in0.0 mm
03:14 AM 45.1°F7.3°C 23.4°F-4.8°C 42% 8.0 mph NW12.9 kmh NW 12.0 mph19.3 kmh 30.04 in1017.3 mb 0.00 in0.0 mm 0.00 in0.0 mm 0.00 in0.0 mm
03:16 AM 45.1°F7.3°C 23.4°F-4.8°C 42% 8.0 mph NNW12.9 kmh NNW 12.0 mph19.3 kmh 30.05 in1017.6 mb 0.00 in0.0 mm 0.00 in0.0 mm 0.00 in0.0 mm
03:18 AM 45.1°F7.3°C 23.4°F-4.8°C 42% 6.0 mph N9.7 kmh N 12.0 mph19.3 kmh 30.05 in1017.6 mb 0.00 in0.0 mm 0.00 in0.0 mm 0.00 in0.0 mm
03:20 AM 45.0°F7.2°C 23.3°F-4.8°C 42% 10.0 mph N16.1 kmh N 17.0 mph27.4 kmh 30.05 in1017.6 mb 0.00 in0.0 mm 0.00 in0.0 mm 0.00 in0.0 mm
03:22 AM 45.0°F7.2°C 23.3°F-4.8°C 42% 6.0 mph NW9.7 kmh NW 17.0 mph27.4 kmh 30.05 in1017.6 mb 0.00 in0.0 mm 0.00 in0.0 mm 0.00 in0.0 mm
03:24 AM 45.0°F7.2°C 23.3°F-4.8°C 42% 3.0 mph N4.8 kmh N 17.0 mph27.4 kmh 30.05 in1017.6 mb 0.00 in0.0 mm 0.00 in0.0 mm 0.00 in0.0 mm
03:26 AM 44.9°F7.2°C 23.2°F-4.9°C 42% 4.0 mph N6.4 kmh N 17.0 mph27.4 kmh 30.05 in1017.6 mb 0.00 in0.0 mm 0.00 in0.0 mm 0.00 in0.0 mm
03:28 AM 44.9°F7.2°C 23.8°F-4.6°C 43% 5.0 mph NW8.0 kmh NW 17.0 mph27.4 kmh 30.05 in1017.6 mb 0.00 in0.0 mm 0.00 in0.0 mm 0.00 in0.0 mm
03:30 AM 44.8°F7.1°C 23.7°F-4.6°C 43% 6.0 mph NNW9.7 kmh NNW 17.0 mph27.4 kmh 30.05 in1017.6 mb 0.00 in0.0 mm 0.00 in0.0 mm 0.00 in0.0 mm
03:32 AM 44.7°F7.1°C 23.6°F-4.7°C 43% 5.0 mph NW8.0 kmh NW 17.0 mph27.4 kmh 30.05 in1017.6 mb 0.00 in0.0 mm 0.00 in0.0 mm 0.00 in0.0 mm
03:34 AM 44.7°F7.1°C 23.6°F-4.7°C 43% 6.0 mph N9.7 kmh N 10.0 mph16.1 kmh 30.05 in1017.6 mb 0.00 in0.0 mm 0.00 in0.0 mm 0.00 in0.0 mm
03:36 AM 44.5°F6.9°C 23.4°F-4.8°C 43% 6.0 mph NW9.7 kmh NW 11.0 mph17.7 kmh 30.05 in1017.6 mb 0.00 in0.0 mm 0.00 in0.0 mm 0.00 in0.0 mm
03:38 AM 44.4°F6.9°C 23.3°F-4.8°C 43% 6.0 mph NNW9.7 kmh NNW 12.0 mph19.3 kmh 30.05 in1017.6 mb 0.00 in0.0 mm 0.00 in0.0 mm 0.00 in0.0 mm
03:40 AM 44.4°F6.9°C 23.3°F-4.8°C 43% 4.0 mph NW6.4 kmh NW 12.0 mph19.3 kmh 30.05 in1017.6 mb 0.00 in0.0 mm 0.00 in0.0 mm 0.00 in0.0 mm
03:42 AM 44.4°F6.9°C 23.3°F-4.8°C 43% 12.0 mph N19.3 kmh N 12.0 mph19.3 kmh 30.05 in1017.6 mb 0.00 in0.0 mm 0.00 in0.0 mm 0.00 in0.0 mm
03:44 AM 44.3°F6.8°C 23.2°F-4.9°C 43% 6.0 mph NE9.7 kmh NE 12.0 mph19.3 kmh 30.05 in1017.6 mb 0.00 in0.0 mm 0.00 in0.0 mm 0.00 in0.0 mm
03:46 AM 44.3°F6.8°C 23.2°F-4.9°C 43% 13.0 mph NNW20.9 kmh NNW 13.0 mph20.9 kmh 30.05 in1017.6 mb 0.00 in0.0 mm 0.00 in0.0 mm 0.00 in0.0 mm
03:47 AM 44.3°F6.8°C 23.8°F-4.6°C 44% 8.0 mph NNW12.9 kmh NNW 13.0 mph20.9 kmh 30.05 in1017.6 mb 0.00 in0.0 mm 0.00 in0.0 mm 0.00 in0.0 mm
03:50 AM 44.2°F6.8°C 23.7°F-4.6°C 44% 3.0 mph NW4.8 kmh NW 13.0 mph20.9 kmh 30.05 in1017.6 mb 0.00 in0.0 mm 0.00 in0.0 mm 0.00 in0.0 mm
03:52 AM 44.2°F6.8°C 23.7°F-4.6°C 44% 5.0 mph NW8.0 kmh NW 13.0 mph20.9 kmh 30.05 in1017.6 mb 0.00 in0.0 mm 0.00 in0.0 mm 0.00 in0.0 mm
03:54 AM 44.1°F6.7°C 23.6°F-4.7°C 44% 9.0 mph NW14.5 kmh NW 13.0 mph20.9 kmh 30.05 in1017.6 mb 0.00 in0.0 mm 0.00 in0.0 mm 0.00 in0.0 mm
03:56 AM 44.1°F6.7°C 23.6°F-4.7°C 44% 4.0 mph NNW6.4 kmh NNW 13.0 mph20.9 kmh 30.05 in1017.6 mb 0.00 in0.0 mm 0.00 in0.0 mm 0.00 in0.0 mm
03:58 AM 44.0°F6.7°C 23.5°F-4.7°C 44% 2.0 mph N3.2 kmh N 13.0 mph20.9 kmh 30.06 in1017.9 mb 0.00 in0.0 mm 0.00 in0.0 mm 0.00 in0.0 mm
04:00 AM 44.0°F6.7°C 23.5°F-4.7°C 44% 2.0 mph NW3.2 kmh NW 13.0 mph20.9 kmh 30.07 in1018.3 mb 0.00 in0.0 mm 0.00 in0.0 mm 0.00 in0.0 mm
04:02 AM 44.0°F6.7°C 23.5°F-4.7°C 44% 4.0 mph NW6.4 kmh NW 13.0 mph20.9 kmh 30.07 in1018.3 mb 0.00 in0.0 mm 0.00 in0.0 mm 0.00 in0.0 mm
04:04 AM 43.9°F6.6°C 24.0°F-4.4°C 45% 1.0 mph N1.6 kmh N 7.0 mph11.3 kmh 30.06 in1017.9 mb 0.00 in0.0 mm 0.00 in0.0 mm 0.00 in0.0 mm
04:06 AM 43.8°F6.6°C 23.9°F-4.5°C 45% 9.0 mph NNW14.5 kmh NNW 10.0 mph16.1 kmh 30.06 in1017.9 mb 0.00 in0.0 mm 0.00 in0.0 mm 0.00 in0.0 mm
04:08 AM 43.8°F6.6°C 23.9°F-4.5°C 45% 3.0 mph N4.8 kmh N 10.0 mph16.1 kmh 30.06 in1017.9 mb 0.00 in0.0 mm 0.00 in0.0 mm 0.00 in0.0 mm
04:10 AM 43.8°F6.6°C 23.9°F-4.5°C 45% 5.0 mph NW8.0 kmh NW 10.0 mph16.1 kmh 30.06 in1017.9 mb 0.00 in0.0 mm 0.00 in0.0 mm 0.00 in0.0 mm
04:12 AM 43.7°F6.5°C 23.8°F-4.6°C 45% 6.0 mph N9.7 kmh N 10.0 mph16.1 kmh 30.06 in1017.9 mb 0.00 in0.0 mm 0.00 in0.0 mm 0.00 in0.0 mm
04:14 AM 43.6°F6.4°C 24.2°F-4.3°C 46% 4.0 mph NW6.4 kmh NW 10.0 mph16.1 kmh 30.06 in1017.9 mb 0.00 in0.0 mm 0.00 in0.0 mm 0.00 in0.0 mm
04:16 AM 43.5°F6.4°C 24.1°F-4.4°C 46% 2.0 mph NNW3.2 kmh NNW 10.0 mph16.1 kmh 30.06 in1017.9 mb 0.00 in0.0 mm 0.00 in0.0 mm 0.00 in0.0 mm
04:18 AM 43.5°F6.4°C 24.1°F-4.4°C 46% 4.0 mph NNW6.4 kmh NNW 10.0 mph16.1 kmh 30.06 in1017.9 mb 0.00 in0.0 mm 0.00 in0.0 mm 0.00 in0.0 mm
04:20 AM 43.5°F6.4°C 24.1°F-4.4°C 46% 3.0 mph NNW4.8 kmh NNW 11.0 mph17.7 kmh 30.06 in1017.9 mb 0.00 in0.0 mm 0.00 in0.0 mm 0.00 in0.0 mm
04:22 AM 43.5°F6.4°C 24.1°F-4.4°C 46% 4.0 mph NNW6.4 kmh NNW 11.0 mph17.7 kmh 30.06 in1017.9 mb 0.00 in0.0 mm 0.00 in0.0 mm 0.00 in0.0 mm
04:24 AM 43.5°F6.4°C 24.1°F-4.4°C 46% 6.0 mph NW9.7 kmh NW 11.0 mph17.7 kmh 30.06 in1017.9 mb 0.00 in0.0 mm 0.00 in0.0 mm 0.00 in0.0 mm
04:26 AM 43.5°F6.4°C 24.1°F-4.4°C 46% 4.0 mph NW6.4 kmh NW 11.0 mph17.7 kmh 30.07 in1018.3 mb 0.00 in0.0 mm 0.00 in0.0 mm 0.00 in0.0 mm
04:28 AM 43.5°F6.4°C 24.1°F-4.4°C 46% 10.0 mph NW16.1 kmh NW 12.0 mph19.3 kmh 30.07 in1018.3 mb 0.00 in0.0 mm 0.00 in0.0 mm 0.00 in0.0 mm
04:30 AM 43.5°F6.4°C 24.1°F-4.4°C 46% 5.0 mph NW8.0 kmh NW 12.0 mph19.3 kmh 30.06 in1017.9 mb 0.00 in0.0 mm 0.00 in0.0 mm 0.00 in0.0 mm
04:32 AM 43.4°F6.3°C 24.0°F-4.4°C 46% 10.0 mph N16.1 kmh N 12.0 mph19.3 kmh 30.06 in1017.9 mb 0.00 in0.0 mm 0.00 in0.0 mm 0.00 in0.0 mm
04:34 AM 43.4°F6.3°C 24.0°F-4.4°C 46% 6.0 mph NW9.7 kmh NW 9.0 mph14.5 kmh 30.06 in1017.9 mb 0.00 in0.0 mm 0.00 in0.0 mm 0.00 in0.0 mm
04:36 AM 43.3°F6.3°C 23.9°F-4.5°C 46% 2.0 mph N3.2 kmh N 9.0 mph14.5 kmh 30.06 in1017.9 mb 0.00 in0.0 mm 0.00 in0.0 mm 0.00 in0.0 mm
04:38 AM 43.2°F6.2°C 23.8°F-4.6°C 46% 4.0 mph N6.4 kmh N 9.0 mph14.5 kmh 30.06 in1017.9 mb 0.00 in0.0 mm 0.00 in0.0 mm 0.00 in0.0 mm
04:40 AM 43.2°F6.2°C 24.4°F-4.2°C 47% 6.0 mph NW9.7 kmh NW 9.0 mph14.5 kmh 30.06 in1017.9 mb 0.00 in0.0 mm 0.00 in0.0 mm 0.00 in0.0 mm
04:42 AM 43.2°F6.2°C 24.4°F-4.2°C 47% 3.0 mph N4.8 kmh N 9.0 mph14.5 kmh 30.07 in1018.3 mb 0.00 in0.0 mm 0.00 in0.0 mm 0.00 in0.0 mm
04:44 AM 43.2°F6.2°C 24.4°F-4.2°C 47% 2.0 mph N3.2 kmh N 9.0 mph14.5 kmh 30.07 in1018.3 mb 0.00 in0.0 mm 0.00 in0.0 mm 0.00 in0.0 mm
04:46 AM 43.1°F6.2°C 24.3°F-4.3°C 47% 3.0 mph NW4.8 kmh NW 9.0 mph14.5 kmh 30.07 in1018.3 mb 0.00 in0.0 mm 0.00 in0.0 mm 0.00 in0.0 mm
04:48 AM 43.0°F6.1°C 24.2°F-4.3°C 47% 5.0 mph N8.0 kmh N 9.0 mph14.5 kmh 30.07 in1018.3 mb 0.00 in0.0 mm 0.00 in0.0 mm 0.00 in0.0 mm
04:50 AM 43.0°F6.1°C 24.2°F-4.3°C 47% 9.0 mph NNE14.5 kmh NNE 9.0 mph14.5 kmh 30.06 in1017.9 mb 0.00 in0.0 mm 0.00 in0.0 mm 0.00 in0.0 mm
04:52 AM 43.0°F6.1°C 24.2°F-4.3°C 47% 9.0 mph NNW14.5 kmh NNW 12.0 mph19.3 kmh 30.06 in1017.9 mb 0.00 in0.0 mm 0.00 in0.0 mm 0.00 in0.0 mm
04:54 AM 42.9°F6.1°C 24.1°F-4.4°C 47% 9.0 mph N14.5 kmh N 12.0 mph19.3 kmh 30.06 in1017.9 mb 0.00 in0.0 mm 0.00 in0.0 mm 0.00 in0.0 mm
04:56 AM 42.9°F6.1°C 24.1°F-4.4°C 47% 12.0 mph NNW19.3 kmh NNW 12.0 mph19.3 kmh 30.05 in1017.6 mb 0.00 in0.0 mm 0.00 in0.0 mm 0.00 in0.0 mm
04:58 AM 42.9°F6.1°C 24.1°F-4.4°C 47% 8.0 mph N12.9 kmh N 19.0 mph30.6 kmh 30.05 in1017.6 mb 0.00 in0.0 mm 0.00 in0.0 mm 0.00 in0.0 mm
05:00 AM 43.0°F6.1°C 24.2°F-4.3°C 47% 3.0 mph NW4.8 kmh NW 19.0 mph30.6 kmh 30.06 in1017.9 mb 0.00 in0.0 mm 0.00 in0.0 mm 0.00 in0.0 mm
05:02 AM 43.0°F6.1°C 24.2°F-4.3°C 47% 12.0 mph N19.3 kmh N 19.0 mph30.6 kmh 30.06 in1017.9 mb 0.00 in0.0 mm 0.00 in0.0 mm 0.00 in0.0 mm
05:04 AM 43.0°F6.1°C 24.2°F-4.3°C 47% 6.0 mph NE9.7 kmh NE 10.0 mph16.1 kmh 30.06 in1017.9 mb 0.00 in0.0 mm 0.00 in0.0 mm 0.00 in0.0 mm
05:06 AM 43.0°F6.1°C 24.2°F-4.3°C 47% 8.0 mph N12.9 kmh N 15.0 mph24.1 kmh 30.06 in1017.9 mb 0.00 in0.0 mm 0.00 in0.0 mm 0.00 in0.0 mm
05:08 AM 43.0°F6.1°C 24.2°F-4.3°C 47% 6.0 mph NNE9.7 kmh NNE 15.0 mph24.1 kmh 30.07 in1018.3 mb 0.00 in0.0 mm 0.00 in0.0 mm 0.00 in0.0 mm
05:10 AM 43.0°F6.1°C 24.2°F-4.3°C 47% 5.0 mph NW8.0 kmh NW 15.0 mph24.1 kmh 30.07 in1018.3 mb 0.00 in0.0 mm 0.00 in0.0 mm 0.00 in0.0 mm
05:12 AM 43.0°F6.1°C 24.2°F-4.3°C 47% 4.0 mph NW6.4 kmh NW 15.0 mph24.1 kmh 30.07 in1018.3 mb 0.00 in0.0 mm 0.00 in0.0 mm 0.00 in0.0 mm
05:14 AM 43.0°F6.1°C 24.2°F-4.3°C 47% 10.0 mph N16.1 kmh N 15.0 mph24.1 kmh 30.07 in1018.3 mb 0.00 in0.0 mm 0.00 in0.0 mm 0.00 in0.0 mm
05:16 AM 43.0°F6.1°C 24.2°F-4.3°C 47% 10.0 mph NNW16.1 kmh NNW 15.0 mph24.1 kmh 30.06 in1017.9 mb 0.00 in0.0 mm 0.00 in0.0 mm 0.00 in0.0 mm
05:18 AM 42.9°F6.1°C 24.6°F-4.1°C 48% 3.0 mph NNW4.8 kmh NNW 15.0 mph24.1 kmh 30.06 in1017.9 mb 0.00 in0.0 mm 0.00 in0.0 mm 0.00 in0.0 mm
05:20 AM 42.9°F6.1°C 24.6°F-4.1°C 48% 4.0 mph N6.4 kmh N 15.0 mph24.1 kmh 30.06 in1017.9 mb 0.00 in0.0 mm 0.00 in0.0 mm 0.00 in0.0 mm
05:22 AM 42.8°F6.0°C 24.5°F-4.2°C 48% 4.0 mph NNW6.4 kmh NNW 15.0 mph24.1 kmh 30.06 in1017.9 mb 0.00 in0.0 mm 0.00 in0.0 mm 0.00 in0.0 mm
05:24 AM 42.8°F6.0°C 24.5°F-4.2°C 48% 4.0 mph NNW6.4 kmh NNW 15.0 mph24.1 kmh 30.07 in1018.3 mb 0.00 in0.0 mm 0.00 in0.0 mm 0.00 in0.0 mm
05:26 AM 42.7°F5.9°C 24.4°F-4.2°C 48% 4.0 mph NW6.4 kmh NW 15.0 mph24.1 kmh 30.06 in1017.9 mb 0.00 in0.0 mm 0.00 in0.0 mm 0.00 in0.0 mm
05:28 AM 42.6°F5.9°C 24.3°F-4.3°C 48% 4.0 mph N6.4 kmh N 15.0 mph24.1 kmh 30.07 in1018.3 mb 0.00 in0.0 mm 0.00 in0.0 mm 0.00 in0.0 mm
05:30 AM 42.6°F5.9°C 24.8°F-4.0°C 49% 6.0 mph NW9.7 kmh NW 15.0 mph24.1 kmh 30.07 in1018.3 mb 0.00 in0.0 mm 0.00 in0.0 mm 0.00 in0.0 mm
05:32 AM 42.5°F5.8°C 24.7°F-4.1°C 49% 11.0 mph NNW17.7 kmh NNW 15.0 mph24.1 kmh 30.07 in1018.3 mb 0.00 in0.0 mm 0.00 in0.0 mm 0.00 in0.0 mm
05:34 AM 42.5°F5.8°C 24.7°F-4.1°C 49% 4.0 mph N6.4 kmh N 9.0 mph14.5 kmh 30.07 in1018.3 mb 0.00 in0.0 mm 0.00 in0.0 mm 0.00 in0.0 mm
05:35 AM 42.4°F5.8°C 24.6°F-4.1°C 49% 8.0 mph NW12.9 kmh NW 9.0 mph14.5 kmh 30.07 in1018.3 mb 0.00 in0.0 mm 0.00 in0.0 mm 0.00 in0.0 mm
05:38 AM 42.4°F5.8°C 24.6°F-4.1°C 49% 4.0 mph N6.4 kmh N 10.0 mph16.1 kmh 30.07 in1018.3 mb 0.00 in0.0 mm 0.00 in0.0 mm 0.00 in0.0 mm
05:40 AM 42.3°F5.7°C 24.5°F-4.2°C 49% 2.0 mph NNW3.2 kmh NNW 10.0 mph16.1 kmh 30.08 in1018.6 mb 0.00 in0.0 mm 0.00 in0.0 mm 0.00 in0.0 mm
05:42 AM 42.2°F5.7°C 24.4°F-4.2°C 49% 8.0 mph NNE12.9 kmh NNE 10.0 mph16.1 kmh 30.08 in1018.6 mb 0.00 in0.0 mm 0.00 in0.0 mm 0.00 in0.0 mm
05:44 AM 42.3°F5.7°C 24.5°F-4.2°C 49% 9.0 mph NW14.5 kmh NW 10.0 mph16.1 kmh 30.08 in1018.6 mb 0.00 in0.0 mm 0.00 in0.0 mm 0.00 in0.0 mm
05:46 AM 42.1°F5.6°C 24.3°F-4.3°C 49% 4.0 mph N6.4 kmh N 10.0 mph16.1 kmh 30.08 in1018.6 mb 0.00 in0.0 mm 0.00 in0.0 mm 0.00 in0.0 mm
05:48 AM 42.1°F5.6°C 24.8°F-4.0°C 50% 8.0 mph NNW12.9 kmh NNW 10.0 mph16.1 kmh 30.08 in1018.6 mb 0.00 in0.0 mm 0.00 in0.0 mm 0.00 in0.0 mm
05:50 AM 42.1°F5.6°C 24.8°F-4.0°C 50% 2.0 mph NNW3.2 kmh NNW 10.0 mph16.1 kmh 30.08 in1018.6 mb 0.00 in0.0 mm 0.00 in0.0 mm 0.00 in0.0 mm
05:52 AM 42.1°F5.6°C 24.8°F-4.0°C 50% 6.0 mph NW9.7 kmh NW 10.0 mph16.1 kmh 30.08 in1018.6 mb 0.00 in0.0 mm 0.00 in0.0 mm 0.00 in0.0 mm
05:54 AM 42.0°F5.6°C 24.7°F-4.1°C 50% 8.0 mph NNW12.9 kmh NNW 10.0 mph16.1 kmh 30.08 in1018.6 mb 0.00 in0.0 mm 0.00 in0.0 mm 0.00 in0.0 mm
05:56 AM 41.9°F5.5°C 24.6°F-4.1°C 50% 5.0 mph N8.0 kmh N 10.0 mph16.1 kmh 30.08 in1018.6 mb 0.00 in0.0 mm 0.00 in0.0 mm 0.00 in0.0 mm
05:58 AM 41.9°F5.5°C 25.1°F-3.8°C 51% 8.0 mph N12.9 kmh N 10.0 mph16.1 kmh 30.08 in1018.6 mb 0.00 in0.0 mm 0.00 in0.0 mm 0.00 in0.0 mm
06:00 AM 41.8°F5.4°C 25.0°F-3.9°C 51% 8.0 mph N12.9 kmh N 10.0 mph16.1 kmh 30.08 in1018.6 mb 0.00 in0.0 mm 0.00 in0.0 mm 0.00 in0.0 mm
06:02 AM 41.8°F5.4°C 25.0°F-3.9°C 51% 8.0 mph NW12.9 kmh NW 11.0 mph17.7 kmh 30.08 in1018.6 mb 0.00 in0.0 mm 0.00 in0.0 mm 0.00 in0.0 mm
06:04 AM 41.8°F5.4°C 25.0°F-3.9°C 51% 3.0 mph NNW4.8 kmh NNW 10.0 mph16.1 kmh 30.09 in1019.0 mb 0.00 in0.0 mm 0.00 in0.0 mm 0.00 in0.0 mm
06:06 AM 41.8°F5.4°C 25.0°F-3.9°C 51% 2.0 mph NNW3.2 kmh NNW 10.0 mph16.1 kmh 30.09 in1019.0 mb 0.00 in0.0 mm 0.00 in0.0 mm 0.00 in0.0 mm
06:08 AM 41.7°F5.4°C 24.9°F-3.9°C 51% 2.0 mph N3.2 kmh N 10.0 mph16.1 kmh 30.09 in1019.0 mb 0.00 in0.0 mm 0.00 in0.0 mm 0.00 in0.0 mm
06:10 AM 41.7°F5.4°C 24.9°F-3.9°C 51% 3.0 mph NW4.8 kmh NW 10.0 mph16.1 kmh 30.09 in1019.0 mb 0.00 in0.0 mm 0.00 in0.0 mm 0.00 in0.0 mm
06:12 AM 41.6°F5.3°C 24.8°F-4.0°C 51% 4.0 mph NW6.4 kmh NW 10.0 mph16.1 kmh 30.10 in1019.3 mb 0.00 in0.0 mm 0.00 in0.0 mm 0.00 in0.0 mm
06:14 AM 41.6°F5.3°C 24.8°F-4.0°C 51% 6.0 mph NW9.7 kmh NW 10.0 mph16.1 kmh 30.10 in1019.3 mb 0.00 in0.0 mm 0.00 in0.0 mm 0.00 in0.0 mm
06:16 AM 41.6°F5.3°C 25.3°F-3.7°C 52% 1.0 mph N1.6 kmh N 10.0 mph16.1 kmh 30.10 in1019.3 mb 0.00 in0.0 mm 0.00 in0.0 mm 0.00 in0.0 mm
06:18 AM 41.5°F5.3°C 25.2°F-3.8°C 52% 5.0 mph N8.0 kmh N 10.0 mph16.1 kmh 30.10 in1019.3 mb 0.00 in0.0 mm 0.00 in0.0 mm 0.00 in0.0 mm
06:20 AM 41.5°F5.3°C 25.2°F-3.8°C 52% 5.0 mph NW8.0 kmh NW 10.0 mph16.1 kmh 30.10 in1019.3 mb 0.00 in0.0 mm 0.00 in0.0 mm 0.00 in0.0 mm
06:22 AM 41.5°F5.3°C 25.2°F-3.8°C 52% 5.0 mph NNW8.0 kmh NNW 10.0 mph16.1 kmh 30.10 in1019.3 mb 0.00 in0.0 mm 0.00 in0.0 mm 0.00 in0.0 mm
06:24 AM 41.4°F5.2°C 25.1°F-3.8°C 52% 3.0 mph N4.8 kmh N 10.0 mph16.1 kmh 30.10 in1019.3 mb 0.00 in0.0 mm 0.00 in0.0 mm 0.00 in0.0 mm
06:26 AM 41.3°F5.2°C 25.0°F-3.9°C 52% 3.0 mph N4.8 kmh N 10.0 mph16.1 kmh 30.10 in1019.3 mb 0.00 in0.0 mm 0.00 in0.0 mm 0.00 in0.0 mm
06:28 AM 41.2°F5.1°C 25.4°F-3.7°C 53% 6.0 mph N9.7 kmh N 10.0 mph16.1 kmh 30.10 in1019.3 mb 0.00 in0.0 mm 0.00 in0.0 mm 0.00 in0.0 mm
06:30 AM 41.1°F5.1°C 25.3°F-3.7°C 53% 3.0 mph N4.8 kmh N 13.0 mph20.9 kmh 30.10 in1019.3 mb 0.00 in0.0 mm 0.00 in0.0 mm 0.00 in0.0 mm
06:32 AM 41.2°F5.1°C 25.4°F-3.7°C 53% 2.0 mph N3.2 kmh N 13.0 mph20.9 kmh 30.11 in1019.6 mb 0.00 in0.0 mm 0.00 in0.0 mm 0.00 in0.0 mm
06:34 AM 41.1°F5.1°C 25.3°F-3.7°C 53% 8.0 mph NW12.9 kmh NW 8.0 mph12.9 kmh 30.11 in1019.6 mb 0.00 in0.0 mm 0.00 in0.0 mm 0.00 in0.0 mm
06:36 AM 41.1°F5.1°C 25.3°F-3.7°C 53% 6.0 mph N9.7 kmh N 10.0 mph16.1 kmh 30.11 in1019.6 mb 0.00 in0.0 mm 0.00 in0.0 mm 0.00 in0.0 mm
06:38 AM 41.1°F5.1°C 25.3°F-3.7°C 53% 2.0 mph N3.2 kmh N 10.0 mph16.1 kmh 30.11 in1019.6 mb 0.00 in0.0 mm 0.00 in0.0 mm 0.00 in0.0 mm
06:40 AM 41.1°F5.1°C 25.3°F-3.7°C 53% 3.0 mph NNE4.8 kmh NNE 10.0 mph16.1 kmh 30.11 in1019.6 mb 0.00 in0.0 mm 0.00 in0.0 mm 0.00 in0.0 mm
06:42 AM 41.0°F5.0°C 25.2°F-3.8°C 53% 5.0 mph NNW8.0 kmh NNW 10.0 mph16.1 kmh 30.11 in1019.6 mb 0.00 in0.0 mm 0.00 in0.0 mm 0.00 in0.0 mm
06:44 AM 41.0°F5.0°C 25.2°F-3.8°C 53% 10.0 mph N16.1 kmh N 10.0 mph16.1 kmh 30.11 in1019.6 mb 0.00 in0.0 mm 0.00 in0.0 mm 0.00 in0.0 mm
06:46 AM 41.0°F5.0°C 25.6°F-3.6°C 54% 4.0 mph NNW6.4 kmh NNW 10.0 mph16.1 kmh 30.11 in1019.6 mb 0.00 in0.0 mm 0.00 in0.0 mm 0.00 in0.0 mm
06:48 AM 40.9°F4.9°C 25.6°F-3.6°C 54% 4.0 mph NE6.4 kmh NE 12.0 mph19.3 kmh 30.11 in1019.6 mb 0.00 in0.0 mm 0.00 in0.0 mm 0.00 in0.0 mm
06:50 AM 40.9°F4.9°C 25.6°F-3.6°C 54% 8.0 mph N12.9 kmh N 12.0 mph19.3 kmh 30.11 in1019.6 mb 0.00 in0.0 mm 0.00 in0.0 mm 0.00 in0.0 mm
06:52 AM 40.9°F4.9°C 25.6°F-3.6°C 54% 4.0 mph NW6.4 kmh NW 12.0 mph19.3 kmh 30.11 in1019.6 mb 0.00 in0.0 mm 0.00 in0.0 mm 0.00 in0.0 mm
06:54 AM 40.9°F4.9°C 25.6°F-3.6°C 54% 5.0 mph NW8.0 kmh NW 12.0 mph19.3 kmh 30.12 in1020.0 mb 0.00 in0.0 mm 0.00 in0.0 mm 0.00 in0.0 mm
06:56 AM 40.8°F4.9°C 25.5°F-3.6°C 54% 3.0 mph N4.8 kmh N 12.0 mph19.3 kmh 30.12 in1020.0 mb 0.00 in0.0 mm 0.00 in0.0 mm 0.00 in0.0 mm
06:58 AM 40.8°F4.9°C 25.5°F-3.6°C 54% 8.0 mph NNE12.9 kmh NNE 12.0 mph19.3 kmh 30.12 in1020.0 mb 0.00 in0.0 mm 0.00 in0.0 mm 0.00 in0.0 mm
07:00 AM 40.8°F4.9°C 25.5°F-3.6°C 54% 5.0 mph NNW8.0 kmh NNW 12.0 mph19.3 kmh 30.12 in1020.0 mb 0.00 in0.0 mm 0.00 in0.0 mm 0.00 in0.0 mm
07:02 AM 40.8°F4.9°C 25.5°F-3.6°C 54% 4.0 mph NNW6.4 kmh NNW 12.0 mph19.3 kmh 30.12 in1020.0 mb 0.00 in0.0 mm 0.00 in0.0 mm 0.00 in0.0 mm
07:04 AM 40.7°F4.8°C 25.4°F-3.7°C 54% 5.0 mph NW8.0 kmh NW 9.0 mph14.5 kmh 30.13 in1020.3 mb 0.00 in0.0 mm 0.00 in0.0 mm 0.00 in0.0 mm
07:06 AM 40.8°F4.9°C 25.5°F-3.6°C 54% 2.0 mph N3.2 kmh N 9.0 mph14.5 kmh 30.13 in1020.3 mb 0.00 in0.0 mm 0.00 in0.0 mm 0.00 in0.0 mm
07:08 AM 40.7°F4.8°C 25.4°F-3.7°C 54% 5.0 mph NNW8.0 kmh NNW 9.0 mph14.5 kmh 30.13 in1020.3 mb 0.00 in0.0 mm 0.00 in0.0 mm 0.00 in0.0 mm
07:10 AM 40.7°F4.8°C 25.4°F-3.7°C 54% 3.0 mph N4.8 kmh N 9.0 mph14.5 kmh 30.13 in1020.3 mb 0.00 in0.0 mm 0.00 in0.0 mm 0.00 in0.0 mm
07:12 AM 40.7°F4.8°C 25.4°F-3.7°C 54% 6.0 mph N9.7 kmh N 9.0 mph14.5 kmh 30.14 in1020.7 mb 0.00 in0.0 mm 0.00 in0.0 mm 0.00 in0.0 mm
07:14 AM 40.7°F4.8°C 25.8°F-3.4°C 55% 9.0 mph NNW14.5 kmh NNW 9.0 mph14.5 kmh 30.13 in1020.3 mb 0.00 in0.0 mm 0.00 in0.0 mm 0.00 in0.0 mm
07:16 AM 40.7°F4.8°C 25.8°F-3.4°C 55% 11.0 mph NNW17.7 kmh NNW 11.0 mph17.7 kmh 30.14 in1020.7 mb 0.00 in0.0 mm 0.00 in0.0 mm 0.00 in0.0 mm
07:18 AM 40.7°F4.8°C 25.8°F-3.4°C 55% 5.0 mph NNW8.0 kmh NNW 11.0 mph17.7 kmh 30.15 in1021.0 mb 0.00 in0.0 mm 0.00 in0.0 mm 0.00 in0.0 mm
07:20 AM 40.7°F4.8°C 25.8°F-3.4°C 55% 4.0 mph N6.4 kmh N 11.0 mph17.7 kmh 30.15 in1021.0 mb 0.00 in0.0 mm 0.00 in0.0 mm 0.00 in0.0 mm
07:22 AM 40.6°F4.8°C 25.7°F-3.5°C 55% 3.0 mph NNE4.8 kmh NNE 11.0 mph17.7 kmh 30.15 in1021.0 mb 0.00 in0.0 mm 0.00 in0.0 mm 0.00 in0.0 mm
07:24 AM 40.6°F4.8°C 25.7°F-3.5°C 55% 13.0 mph NW20.9 kmh NW 13.0 mph20.9 kmh 30.16 in1021.3 mb 0.00 in0.0 mm 0.00 in0.0 mm 0.00 in0.0 mm
07:26 AM 40.6°F4.8°C 25.7°F-3.5°C 55% 6.0 mph NNW9.7 kmh NNW 13.0 mph20.9 kmh 30.16 in1021.3 mb 0.00 in0.0 mm 0.00 in0.0 mm 0.00 in0.0 mm
07:28 AM 40.6°F4.8°C 25.7°F-3.5°C 55% 3.0 mph NNW4.8 kmh NNW 13.0 mph20.9 kmh 30.16 in1021.3 mb 0.00 in0.0 mm 0.00 in0.0 mm 0.00 in0.0 mm
07:30 AM 40.6°F4.8°C 25.7°F-3.5°C 55% 3.0 mph N4.8 kmh N 13.0 mph20.9 kmh 30.16 in1021.3 mb 0.00 in0.0 mm 0.00 in0.0 mm 0.00 in0.0 mm
07:32 AM 40.6°F4.8°C 25.7°F-3.5°C 55% 7.0 mph N11.3 kmh N 13.0 mph20.9 kmh 30.16 in1021.3 mb 0.00 in0.0 mm 0.00 in0.0 mm 0.00 in0.0 mm
07:34 AM 40.6°F4.8°C 25.7°F-3.5°C 55% 6.0 mph NNW9.7 kmh NNW 12.0 mph19.3 kmh 30.16 in1021.3 mb 0.00 in0.0 mm 0.00 in0.0 mm 0.00 in0.0 mm
07:36 AM 40.6°F4.8°C 25.7°F-3.5°C 55% 5.0 mph NNW8.0 kmh NNW 12.0 mph19.3 kmh 30.16 in1021.3 mb 0.00 in0.0 mm 0.00 in0.0 mm 0.00 in0.0 mm
07:37 AM 40.6°F4.8°C 25.7°F-3.5°C 55% 5.0 mph NW8.0 kmh NW 12.0 mph19.3 kmh 30.16 in1021.3 mb 0.00 in0.0 mm 0.00 in0.0 mm 0.00 in0.0 mm
07:40 AM 40.5°F4.7°C 25.6°F-3.6°C 55% 6.0 mph NNW9.7 kmh NNW 12.0 mph19.3 kmh 30.16 in1021.3 mb 0.00 in0.0 mm 0.00 in0.0 mm 0.00 in0.0 mm
07:42 AM 40.6°F4.8°C 25.7°F-3.5°C 55% 5.0 mph N8.0 kmh N 12.0 mph19.3 kmh 30.16 in1021.3 mb 0.00 in0.0 mm 0.00 in0.0 mm 0.00 in0.0 mm
07:44 AM 40.6°F4.8°C 26.2°F-3.2°C 56% 5.0 mph NNE8.0 kmh NNE 12.0 mph19.3 kmh 30.16 in1021.3 mb 0.00 in0.0 mm 0.00 in0.0 mm 0.00 in0.0 mm
07:46 AM 40.6°F4.8°C 26.2°F-3.2°C 56% 10.0 mph NW16.1 kmh NW 13.0 mph20.9 kmh 30.17 in1021.7 mb 0.00 in0.0 mm 0.00 in0.0 mm 0.00 in0.0 mm
07:48 AM 40.7°F4.8°C 26.2°F-3.2°C 56% 9.0 mph NNW14.5 kmh NNW 13.0 mph20.9 kmh 30.17 in1021.7 mb 0.00 in0.0 mm 0.00 in0.0 mm 0.00 in0.0 mm
07:50 AM 40.7°F4.8°C 25.8°F-3.4°C 55% 5.0 mph N8.0 kmh N 13.0 mph20.9 kmh 30.17 in1021.7 mb 0.00 in0.0 mm 0.00 in0.0 mm 0.00 in0.0 mm
07:52 AM 40.7°F4.8°C 26.2°F-3.2°C 56% 9.0 mph N14.5 kmh N 13.0 mph20.9 kmh 30.17 in1021.7 mb 0.00 in0.0 mm 0.00 in0.0 mm 0.00 in0.0 mm
07:54 AM 40.7°F4.8°C 25.8°F-3.4°C 55% 13.0 mph NNW20.9 kmh NNW 13.0 mph20.9 kmh 30.17 in1021.7 mb 0.00 in0.0 mm 0.00 in0.0 mm 0.00 in0.0 mm
07:56 AM 40.7°F4.8°C 25.8°F-3.4°C 55% 7.0 mph NNE11.3 kmh NNE 13.0 mph20.9 kmh 30.17 in1021.7 mb 0.00 in0.0 mm 0.00 in0.0 mm 0.00 in0.0 mm
07:58 AM 40.7°F4.8°C 26.2°F-3.2°C 56% 9.0 mph N14.5 kmh N 13.0 mph20.9 kmh 30.17 in1021.7 mb 0.00 in0.0 mm 0.00 in0.0 mm 0.00 in0.0 mm
08:00 AM 40.7°F4.8°C 26.2°F-3.2°C 56% 4.0 mph NNE6.4 kmh NNE 13.0 mph20.9 kmh 30.17 in1021.7 mb 0.00 in0.0 mm 0.00 in0.0 mm 0.00 in0.0 mm
08:02 AM 40.6°F4.8°C 26.2°F-3.2°C 56% 9.0 mph NW14.5 kmh NW 13.0 mph20.9 kmh 30.17 in1021.7 mb 0.00 in0.0 mm 0.00 in0.0 mm 0.00 in0.0 mm
08:04 AM 40.6°F4.8°C 26.2°F-3.2°C 56% 14.0 mph NW22.5 kmh NW 14.0 mph22.5 kmh 30.17 in1021.7 mb 0.00 in0.0 mm 0.00 in0.0 mm 0.00 in0.0 mm
08:06 AM 40.6°F4.8°C 25.7°F-3.5°C 55% 9.0 mph N14.5 kmh N 14.0 mph22.5 kmh 30.18 in1022.0 mb 0.00 in0.0 mm 0.00 in0.0 mm 0.00 in0.0 mm
08:08 AM 40.6°F4.8°C 26.2°F-3.2°C 56% 9.0 mph NNW14.5 kmh NNW 14.0 mph22.5 kmh 30.18 in1022.0 mb 0.00 in0.0 mm 0.00 in0.0 mm 0.00 in0.0 mm
08:10 AM 40.6°F4.8°C 26.2°F-3.2°C 56% 6.0 mph NNW9.7 kmh NNW 14.0 mph22.5 kmh 30.18 in1022.0 mb 0.00 in0.0 mm 0.00 in0.0 mm 0.00 in0.0 mm
08:12 AM 40.7°F4.8°C 25.8°F-3.4°C 55% 9.0 mph N14.5 kmh N 14.0 mph22.5 kmh 30.18 in1022.0 mb 0.00 in0.0 mm 0.00 in0.0 mm 0.00 in0.0 mm
08:14 AM 40.7°F4.8°C 25.8°F-3.4°C 55% 10.0 mph NW16.1 kmh NW 14.0 mph22.5 kmh 30.18 in1022.0 mb 0.00 in0.0 mm 0.00 in0.0 mm 0.00 in0.0 mm
08:16 AM 40.7°F4.8°C 26.2°F-3.2°C 56% 9.0 mph NNW14.5 kmh NNW 14.0 mph22.5 kmh 30.18 in1022.0 mb 0.00 in0.0 mm 0.00 in0.0 mm 0.00 in0.0 mm
08:18 AM 40.7°F4.8°C 25.8°F-3.4°C 55% 10.0 mph NNE16.1 kmh NNE 14.0 mph22.5 kmh 30.18 in1022.0 mb 0.00 in0.0 mm 0.00 in0.0 mm 0.00 in0.0 mm
08:20 AM 40.7°F4.8°C 25.8°F-3.4°C 55% 2.0 mph N3.2 kmh N 14.0 mph22.5 kmh 30.18 in1022.0 mb 0.00 in0.0 mm 0.00 in0.0 mm 0.00 in0.0 mm
08:22 AM 40.7°F4.8°C 25.8°F-3.4°C 55% 10.0 mph N16.1 kmh N 14.0 mph22.5 kmh 30.18 in1022.0 mb 0.00 in0.0 mm 0.00 in0.0 mm 0.00 in0.0 mm
08:24 AM 40.8°F4.9°C 25.9°F-3.4°C 55% 4.0 mph N6.4 kmh N 14.0 mph22.5 kmh 30.18 in1022.0 mb 0.00 in0.0 mm 0.00 in0.0 mm 0.00 in0.0 mm
08:26 AM 40.7°F4.8°C 25.8°F-3.4°C 55% 3.0 mph N4.8 kmh N 14.0 mph22.5 kmh 30.19 in1022.4 mb 0.00 in0.0 mm 0.00 in0.0 mm 0.00 in0.0 mm
08:28 AM 40.8°F4.9°C 25.9°F-3.4°C 55% 5.0 mph N8.0 kmh N 14.0 mph22.5 kmh 30.19 in1022.4 mb 0.00 in0.0 mm 0.00 in0.0 mm 0.00 in0.0 mm
08:30 AM 40.8°F4.9°C 26.3°F-3.2°C 56% 1.0 mph NNW1.6 kmh NNW 14.0 mph22.5 kmh 30.20 in1022.7 mb 0.00 in0.0 mm 0.00 in0.0 mm 0.00 in0.0 mm
08:32 AM 40.9°F4.9°C 26.0°F-3.3°C 55% 7.0 mph N11.3 kmh N 15.0 mph24.1 kmh 30.21 in1023.0 mb 0.00 in0.0 mm 0.00 in0.0 mm 0.00 in0.0 mm
08:34 AM 40.9°F4.9°C 26.0°F-3.3°C 55% 9.0 mph NNW14.5 kmh NNW 9.0 mph14.5 kmh 30.21 in1023.0 mb 0.00 in0.0 mm 0.00 in0.0 mm 0.00 in0.0 mm
08:36 AM 41.0°F5.0°C 26.1°F-3.3°C 55% 6.0 mph NW9.7 kmh NW 13.0 mph20.9 kmh 30.21 in1023.0 mb 0.00 in0.0 mm 0.00 in0.0 mm 0.00 in0.0 mm
08:38 AM 40.9°F4.9°C 26.0°F-3.3°C 55% 8.0 mph NNW12.9 kmh NNW 13.0 mph20.9 kmh 30.21 in1023.0 mb 0.00 in0.0 mm 0.00 in0.0 mm 0.00 in0.0 mm
08:40 AM 40.8°F4.9°C 25.9°F-3.4°C 55% 6.0 mph N9.7 kmh N 13.0 mph20.9 kmh 30.21 in1023.0 mb 0.00 in0.0 mm 0.00 in0.0 mm 0.00 in0.0 mm
08:42 AM 40.9°F4.9°C 26.0°F-3.3°C 55% 11.0 mph NNE17.7 kmh NNE 13.0 mph20.9 kmh 30.21 in1023.0 mb 0.00 in0.0 mm 0.00 in0.0 mm 0.00 in0.0 mm
08:44 AM 40.8°F4.9°C 25.9°F-3.4°C 55% 8.0 mph NNW12.9 kmh NNW 13.0 mph20.9 kmh 30.21 in1023.0 mb 0.00 in0.0 mm 0.00 in0.0 mm 0.00 in0.0 mm
08:46 AM 40.8°F4.9°C 25.9°F-3.4°C 55% 6.0 mph NW9.7 kmh NW 13.0 mph20.9 kmh 30.22 in1023.4 mb 0.00 in0.0 mm 0.00 in0.0 mm 0.00 in0.0 mm
08:48 AM 40.8°F4.9°C 25.9°F-3.4°C 55% 5.0 mph NW8.0 kmh NW 13.0 mph20.9 kmh 30.22 in1023.4 mb 0.00 in0.0 mm 0.00 in0.0 mm 0.00 in0.0 mm
08:50 AM 40.8°F4.9°C 26.3°F-3.2°C 56% 2.0 mph NNW3.2 kmh NNW 13.0 mph20.9 kmh 30.22 in1023.4 mb 0.00 in0.0 mm 0.00 in0.0 mm 0.00 in0.0 mm
08:52 AM 40.8°F4.9°C 26.3°F-3.2°C 56% 2.0 mph NNW3.2 kmh NNW 13.0 mph20.9 kmh 30.23 in1023.7 mb 0.00 in0.0 mm 0.00 in0.0 mm 0.00 in0.0 mm
08:54 AM 40.9°F4.9°C 26.0°F-3.3°C 55% 9.0 mph NNW14.5 kmh NNW 13.0 mph20.9 kmh 30.23 in1023.7 mb 0.00 in0.0 mm 0.00 in0.0 mm 0.00 in0.0 mm
08:56 AM 40.8°F4.9°C 25.9°F-3.4°C 55% 8.0 mph NW12.9 kmh NW 13.0 mph20.9 kmh 30.22 in1023.4 mb 0.00 in0.0 mm 0.00 in0.0 mm 0.00 in0.0 mm
08:58 AM 40.8°F4.9°C 25.9°F-3.4°C 55% 10.0 mph NW16.1 kmh NW 13.0 mph20.9 kmh 30.23 in1023.7 mb 0.00 in0.0 mm 0.00 in0.0 mm 0.00 in0.0 mm
09:00 AM 40.8°F4.9°C 26.3°F-3.2°C 56% 3.0 mph NNE4.8 kmh NNE 13.0 mph20.9 kmh 30.23 in1023.7 mb 0.00 in0.0 mm 0.00 in0.0 mm 0.00 in0.0 mm
09:02 AM 41.0°F5.0°C 26.5°F-3.1°C 56% 4.0 mph NNW6.4 kmh NNW 13.0 mph20.9 kmh 30.23 in1023.7 mb 0.00 in0.0 mm 0.00 in0.0 mm 0.00 in0.0 mm
09:04 AM 41.0°F5.0°C 26.1°F-3.3°C 55% 6.0 mph N9.7 kmh N 9.0 mph14.5 kmh 30.23 in1023.7 mb 0.00 in0.0 mm 0.00 in0.0 mm 0.00 in0.0 mm
09:06 AM 41.0°F5.0°C 26.1°F-3.3°C 55% 5.0 mph NW8.0 kmh NW 11.0 mph17.7 kmh 30.23 in1023.7 mb 0.00 in0.0 mm 0.00 in0.0 mm 0.00 in0.0 mm
09:08 AM 41.1°F5.1°C 26.2°F-3.2°C 55% 4.0 mph NNW6.4 kmh NNW 11.0 mph17.7 kmh 30.23 in1023.7 mb 0.00 in0.0 mm 0.00 in0.0 mm 0.00 in0.0 mm
09:10 AM 41.1°F5.1°C 26.2°F-3.2°C 55% 9.0 mph NNW14.5 kmh NNW 11.0 mph17.7 kmh 30.23 in1023.7 mb 0.00 in0.0 mm 0.00 in0.0 mm 0.00 in0.0 mm
09:12 AM 41.1°F5.1°C 26.2°F-3.2°C 55% 9.0 mph NNW14.5 kmh NNW 11.0 mph17.7 kmh 30.24 in1024.0 mb 0.00 in0.0 mm 0.00 in0.0 mm 0.00 in0.0 mm
09:14 AM 41.2°F5.1°C 26.3°F-3.2°C 55% 5.0 mph NW8.0 kmh NW 11.0 mph17.7 kmh 30.24 in1024.0 mb 0.00 in0.0 mm 0.00 in0.0 mm 0.00 in0.0 mm
09:16 AM 41.2°F5.1°C 26.3°F-3.2°C 55% 4.0 mph NW6.4 kmh NW 11.0 mph17.7 kmh 30.24 in1024.0 mb 0.00 in0.0 mm 0.00 in0.0 mm 0.00 in0.0 mm
09:18 AM 41.3°F5.2°C 26.4°F-3.1°C 55% 8.0 mph WNW12.9 kmh WNW 12.0 mph19.3 kmh 30.24 in1024.0 mb 0.00 in0.0 mm 0.00 in0.0 mm 0.00 in0.0 mm
09:20 AM 41.3°F5.2°C 26.4°F-3.1°C 55% 8.0 mph NW12.9 kmh NW 12.0 mph19.3 kmh 30.24 in1024.0 mb 0.00 in0.0 mm 0.00 in0.0 mm 0.00 in0.0 mm
09:22 AM 41.3°F5.2°C 25.9°F-3.4°C 54% 9.0 mph NNW14.5 kmh NNW 12.0 mph19.3 kmh 30.24 in1024.0 mb 0.00 in0.0 mm 0.00 in0.0 mm 0.00 in0.0 mm
09:24 AM 41.3°F5.2°C 26.4°F-3.1°C 55% 5.0 mph NW8.0 kmh NW 12.0 mph19.3 kmh 30.24 in1024.0 mb 0.00 in0.0 mm 0.00 in0.0 mm 0.00 in0.0 mm
09:26 AM 41.3°F5.2°C 26.4°F-3.1°C 55% 2.0 mph NW3.2 kmh NW 12.0 mph19.3 kmh 30.25 in1024.4 mb 0.00 in0.0 mm 0.00 in0.0 mm 0.00 in0.0 mm
09:28 AM 41.3°F5.2°C 25.9°F-3.4°C 54% 2.0 mph N3.2 kmh N 12.0 mph19.3 kmh 30.25 in1024.4 mb 0.00 in0.0 mm 0.00 in0.0 mm 0.00 in0.0 mm
09:30 AM 41.4°F5.2°C 26.0°F-3.3°C 54% 8.0 mph N12.9 kmh N 12.0 mph19.3 kmh 30.25 in1024.4 mb 0.00 in0.0 mm 0.00 in0.0 mm 0.00 in0.0 mm
09:32 AM 41.5°F5.3°C 26.1°F-3.3°C 54% 4.0 mph NNE6.4 kmh NNE 12.0 mph19.3 kmh 30.25 in1024.4 mb 0.00 in0.0 mm 0.00 in0.0 mm 0.00 in0.0 mm
09:34 AM 41.5°F5.3°C 26.1°F-3.3°C 54% 3.0 mph NNW4.8 kmh NNW 9.0 mph14.5 kmh 30.25 in1024.4 mb 0.00 in0.0 mm 0.00 in0.0 mm 0.00 in0.0 mm
09:36 AM 41.6°F5.3°C 26.2°F-3.2°C 54% 8.0 mph NNW12.9 kmh NNW 10.0 mph16.1 kmh 30.25 in1024.4 mb 0.00 in0.0 mm 0.00 in0.0 mm 0.00 in0.0 mm
09:38 AM 41.6°F5.3°C 26.2°F-3.2°C 54% 7.0 mph NNE11.3 kmh NNE 10.0 mph16.1 kmh 30.25 in1024.4 mb 0.00 in0.0 mm 0.00 in0.0 mm 0.00 in0.0 mm
09:40 AM 41.7°F5.4°C 26.3°F-3.2°C 54% 11.0 mph N17.7 kmh N 11.0 mph17.7 kmh 30.25 in1024.4 mb 0.00 in0.0 mm 0.00 in0.0 mm 0.00 in0.0 mm
09:42 AM 41.8°F5.4°C 25.9°F-3.4°C 53% 8.0 mph NNW12.9 kmh NNW 11.0 mph17.7 kmh 30.25 in1024.4 mb 0.00 in0.0 mm 0.00 in0.0 mm 0.00 in0.0 mm
09:44 AM 41.8°F5.4°C 26.4°F-3.1°C 54% 3.0 mph N4.8 kmh N 11.0 mph17.7 kmh 30.25 in1024.4 mb 0.00 in0.0 mm 0.00 in0.0 mm 0.00 in0.0 mm
09:46 AM 41.8°F5.4°C 25.9°F-3.4°C 53% 1.0 mph NNW1.6 kmh NNW 11.0 mph17.7 kmh 30.25 in1024.4 mb 0.00 in0.0 mm 0.00 in0.0 mm 0.00 in0.0 mm
09:48 AM 41.9°F5.5°C 26.0°F-3.3°C 53% 12.0 mph N19.3 kmh N 13.0 mph20.9 kmh 30.25 in1024.4 mb 0.00 in0.0 mm 0.00 in0.0 mm 0.00 in0.0 mm
09:50 AM 42.0°F5.6°C 26.1°F-3.3°C 53% 3.0 mph N4.8 kmh N 13.0 mph20.9 kmh 30.25 in1024.4 mb 0.00 in0.0 mm 0.00 in0.0 mm 0.00 in0.0 mm
09:52 AM 42.1°F5.6°C 26.2°F-3.2°C 53% 5.0 mph NNW8.0 kmh NNW 13.0 mph20.9 kmh 30.26 in1024.7 mb 0.00 in0.0 mm 0.00 in0.0 mm 0.00 in0.0 mm
09:54 AM 42.1°F5.6°C 26.2°F-3.2°C 53% 4.0 mph NNE6.4 kmh NNE 13.0 mph20.9 kmh 30.26 in1024.7 mb 0.00 in0.0 mm 0.00 in0.0 mm 0.00 in0.0 mm
09:56 AM 42.2°F5.7°C 26.3°F-3.2°C 53% 4.0 mph WNW6.4 kmh WNW 13.0 mph20.9 kmh 30.26 in1024.7 mb 0.00 in0.0 mm 0.00 in0.0 mm 0.00 in0.0 mm
09:58 AM 42.4°F5.8°C 26.5°F-3.1°C 53% 11.0 mph NW17.7 kmh NW 13.0 mph20.9 kmh 30.26 in1024.7 mb 0.00 in0.0 mm 0.00 in0.0 mm 0.00 in0.0 mm
10:00 AM 42.4°F5.8°C 26.0°F-3.3°C 52% 5.0 mph NE8.0 kmh NE 13.0 mph20.9 kmh 30.26 in1024.7 mb 0.00 in0.0 mm 0.00 in0.0 mm 0.00 in0.0 mm
10:02 AM 42.5°F5.8°C 26.1°F-3.3°C 52% 7.0 mph N11.3 kmh N 13.0 mph20.9 kmh 30.26 in1024.7 mb 0.00 in0.0 mm 0.00 in0.0 mm 0.00 in0.0 mm
10:04 AM 42.6°F5.9°C 26.2°F-3.2°C 52% 3.0 mph NE4.8 kmh NE 5.0 mph8.0 kmh 30.26 in1024.7 mb 0.00 in0.0 mm 0.00 in0.0 mm 0.00 in0.0 mm
10:06 AM 42.7°F5.9°C 26.3°F-3.2°C 52% 4.0 mph NW6.4 kmh NW 9.0 mph14.5 kmh 30.26 in1024.7 mb 0.00 in0.0 mm 0.00 in0.0 mm 0.00 in0.0 mm
10:08 AM 42.7°F5.9°C 26.3°F-3.2°C 52% 5.0 mph NW8.0 kmh NW 9.0 mph14.5 kmh 30.26 in1024.7 mb 0.00 in0.0 mm 0.00 in0.0 mm 0.00 in0.0 mm
10:10 AM 42.7°F5.9°C 26.3°F-3.2°C 52% 5.0 mph NW8.0 kmh NW 11.0 mph17.7 kmh 30.26 in1024.7 mb 0.00 in0.0 mm 0.00 in0.0 mm 0.00 in0.0 mm
10:12 AM 42.8°F6.0°C 26.4°F-3.1°C 52% 3.0 mph N4.8 kmh N 11.0 mph17.7 kmh 30.27 in1025.1 mb 0.00 in0.0 mm 0.00 in0.0 mm 0.00 in0.0 mm
10:14 AM 42.9°F6.1°C 26.5°F-3.1°C 52% 1.0 mph N1.6 kmh N 11.0 mph17.7 kmh 30.27 in1025.1 mb 0.00 in0.0 mm 0.00 in0.0 mm 0.00 in0.0 mm
10:16 AM 43.0°F6.1°C 26.6°F-3.0°C 52% 3.0 mph NE4.8 kmh NE 11.0 mph17.7 kmh 30.27 in1025.1 mb 0.00 in0.0 mm 0.00 in0.0 mm 0.00 in0.0 mm
10:18 AM 43.2°F6.2°C 26.8°F-2.9°C 52% 3.0 mph N4.8 kmh N 11.0 mph17.7 kmh 30.27 in1025.1 mb 0.00 in0.0 mm 0.00 in0.0 mm 0.00 in0.0 mm
10:19 AM 43.4°F6.3°C 27.0°F-2.8°C 52% 8.0 mph NW12.9 kmh NW 11.0 mph17.7 kmh 30.27 in1025.1 mb 0.00 in0.0 mm 0.00 in0.0 mm 0.00 in0.0 mm
10:22 AM 43.5°F6.4°C 26.6°F-3.0°C 51% 8.0 mph NW12.9 kmh NW 11.0 mph17.7 kmh 30.27 in1025.1 mb 0.00 in0.0 mm 0.00 in0.0 mm 0.00 in0.0 mm
10:24 AM 43.4°F6.3°C 26.5°F-3.1°C 51% 2.0 mph N3.2 kmh N 11.0 mph17.7 kmh 30.27 in1025.1 mb 0.00 in0.0 mm 0.00 in0.0 mm 0.00 in0.0 mm
10:25 AM 43.5°F6.4°C 26.6°F-3.0°C 51% 5.0 mph N8.0 kmh N 11.0 mph17.7 kmh 30.27 in1025.1 mb 0.00 in0.0 mm 0.00 in0.0 mm 0.00 in0.0 mm
10:28 AM 43.7°F6.5°C 26.8°F-2.9°C 51% 3.0 mph N4.8 kmh N 11.0 mph17.7 kmh 30.27 in1025.1 mb 0.00 in0.0 mm 0.00 in0.0 mm 0.00 in0.0 mm
10:30 AM 44.0°F6.7°C 27.1°F-2.7°C 51% 6.0 mph NW9.7 kmh NW 11.0 mph17.7 kmh 30.27 in1025.1 mb 0.00 in0.0 mm 0.00 in0.0 mm 0.00 in0.0 mm
10:32 AM 44.1°F6.7°C 26.7°F-2.9°C 50% 4.0 mph N6.4 kmh N 11.0 mph17.7 kmh 30.27 in1025.1 mb 0.00 in0.0 mm 0.00 in0.0 mm 0.00 in0.0 mm
10:34 AM 44.1°F6.7°C 26.7°F-2.9°C 50% 5.0 mph N8.0 kmh N 6.0 mph9.7 kmh 30.27 in1025.1 mb 0.00 in0.0 mm 0.00 in0.0 mm 0.00 in0.0 mm
10:36 AM 44.1°F6.7°C 26.7°F-2.9°C 50% 6.0 mph NNE9.7 kmh NNE 10.0 mph16.1 kmh 30.27 in1025.1 mb 0.00 in0.0 mm 0.00 in0.0 mm 0.00 in0.0 mm
10:38 AM 44.0°F6.7°C 26.6°F-3.0°C 50% 1.0 mph N1.6 kmh N 10.0 mph16.1 kmh 30.27 in1025.1 mb 0.00 in0.0 mm 0.00 in0.0 mm 0.00 in0.0 mm
10:40 AM 44.1°F6.7°C 26.7°F-2.9°C 50% 4.0 mph N6.4 kmh N 10.0 mph16.1 kmh 30.27 in1025.1 mb 0.00 in0.0 mm 0.00 in0.0 mm 0.00 in0.0 mm
10:42 AM 44.1°F6.7°C 26.7°F-2.9°C 50% 1.0 mph NNE1.6 kmh NNE 10.0 mph16.1 kmh 30.26 in1024.7 mb 0.00 in0.0 mm 0.00 in0.0 mm 0.00 in0.0 mm
10:44 AM 44.1°F6.7°C 26.7°F-2.9°C 50% 2.0 mph NE3.2 kmh NE 10.0 mph16.1 kmh 30.26 in1024.7 mb 0.00 in0.0 mm 0.00 in0.0 mm 0.00 in0.0 mm
10:46 AM 44.2°F6.8°C 26.8°F-2.9°C 50% 5.0 mph NNW8.0 kmh NNW 10.0 mph16.1 kmh 30.26 in1024.7 mb 0.00 in0.0 mm 0.00 in0.0 mm 0.00 in0.0 mm
10:48 AM 44.2°F6.8°C 26.8°F-2.9°C 50% 2.0 mph NNW3.2 kmh NNW 10.0 mph16.1 kmh 30.26 in1024.7 mb 0.00 in0.0 mm 0.00 in0.0 mm 0.00 in0.0 mm
10:50 AM 44.2°F6.8°C 26.8°F-2.9°C 50% 4.0 mph NNW6.4 kmh NNW 10.0 mph16.1 kmh 30.27 in1025.1 mb 0.00 in0.0 mm 0.00 in0.0 mm 0.00 in0.0 mm
10:52 AM 44.3°F6.8°C 26.9°F-2.8°C 50% 6.0 mph N9.7 kmh N 11.0 mph17.7 kmh 30.27 in1025.1 mb 0.00 in0.0 mm 0.00 in0.0 mm 0.00 in0.0 mm
10:54 AM 44.3°F6.8°C 26.9°F-2.8°C 50% 1.0 mph ENE1.6 kmh ENE 11.0 mph17.7 kmh 30.26 in1024.7 mb 0.00 in0.0 mm 0.00 in0.0 mm 0.00 in0.0 mm
10:56 AM 44.4°F6.9°C 26.9°F-2.8°C 50% 2.0 mph NNE3.2 kmh NNE 11.0 mph17.7 kmh 30.26 in1024.7 mb 0.00 in0.0 mm 0.00 in0.0 mm 0.00 in0.0 mm
10:58 AM 44.6°F7.0°C 26.6°F-3.0°C 49% 4.0 mph N6.4 kmh N 11.0 mph17.7 kmh 30.26 in1024.7 mb 0.00 in0.0 mm 0.00 in0.0 mm 0.00 in0.0 mm
11:00 AM 44.6°F7.0°C 26.6°F-3.0°C 49% 5.0 mph N8.0 kmh N 11.0 mph17.7 kmh 30.26 in1024.7 mb 0.00 in0.0 mm 0.00 in0.0 mm 0.00 in0.0 mm
11:02 AM 44.7°F7.1°C 26.7°F-2.9°C 49% 9.0 mph N14.5 kmh N 11.0 mph17.7 kmh 30.26 in1024.7 mb 0.00 in0.0 mm 0.00 in0.0 mm 0.00 in0.0 mm
11:04 AM 44.6°F7.0°C 26.6°F-3.0°C 49% 4.0 mph NNE6.4 kmh NNE 6.0 mph9.7 kmh 30.26 in1024.7 mb 0.00 in0.0 mm 0.00 in0.0 mm 0.00 in0.0 mm
11:05 AM 44.6°F7.0°C 26.6°F-3.0°C 49% 9.0 mph NNE14.5 kmh NNE 11.0 mph17.7 kmh 30.26 in1024.7 mb 0.00 in0.0 mm 0.00 in0.0 mm 0.00 in0.0 mm
11:08 AM 44.5°F6.9°C 26.6°F-3.0°C 49% 6.0 mph NE9.7 kmh NE 11.0 mph17.7 kmh 30.26 in1024.7 mb 0.00 in0.0 mm 0.00 in0.0 mm 0.00 in0.0 mm
11:10 AM 44.6°F7.0°C 26.6°F-3.0°C 49% 2.0 mph NW3.2 kmh NW 11.0 mph17.7 kmh 30.26 in1024.7 mb 0.00 in0.0 mm 0.00 in0.0 mm 0.00 in0.0 mm
11:12 AM 44.8°F7.1°C 26.8°F-2.9°C 49% 5.0 mph NNW8.0 kmh NNW 11.0 mph17.7 kmh 30.26 in1024.7 mb 0.00 in0.0 mm 0.00 in0.0 mm 0.00 in0.0 mm
11:14 AM 44.8°F7.1°C 26.8°F-2.9°C 49% 6.0 mph NNW9.7 kmh NNW 11.0 mph17.7 kmh 30.26 in1024.7 mb 0.00 in0.0 mm 0.00 in0.0 mm 0.00 in0.0 mm
11:16 AM 44.7°F7.1°C 26.7°F-2.9°C 49% 7.0 mph NNE11.3 kmh NNE 11.0 mph17.7 kmh 30.26 in1024.7 mb 0.00 in0.0 mm 0.00 in0.0 mm 0.00 in0.0 mm
11:18 AM 44.8°F7.1°C 27.3°F-2.6°C 50% 2.0 mph N3.2 kmh N 11.0 mph17.7 kmh 30.26 in1024.7 mb 0.00 in0.0 mm 0.00 in0.0 mm 0.00 in0.0 mm
11:20 AM 45.0°F7.2°C 27.0°F-2.8°C 49% 2.0 mph NE3.2 kmh NE 11.0 mph17.7 kmh 30.26 in1024.7 mb 0.00 in0.0 mm 0.00 in0.0 mm 0.00 in0.0 mm
11:22 AM 45.2°F7.3°C 26.7°F-2.9°C 48% 5.0 mph NNE8.0 kmh NNE 11.0 mph17.7 kmh 30.26 in1024.7 mb 0.00 in0.0 mm 0.00 in0.0 mm 0.00 in0.0 mm
11:24 AM 45.5°F7.5°C 27.0°F-2.8°C 48% 5.0 mph N8.0 kmh N 11.0 mph17.7 kmh 30.26 in1024.7 mb 0.00 in0.0 mm 0.00 in0.0 mm 0.00 in0.0 mm
11:26 AM 45.6°F7.6°C 26.6°F-3.0°C 47% 7.0 mph NNE11.3 kmh NNE 11.0 mph17.7 kmh 30.26 in1024.7 mb 0.00 in0.0 mm 0.00 in0.0 mm 0.00 in0.0 mm
11:28 AM 45.5°F7.5°C 26.5°F-3.1°C 47% 5.0 mph NE8.0 kmh NE 11.0 mph17.7 kmh 30.26 in1024.7 mb 0.00 in0.0 mm 0.00 in0.0 mm 0.00 in0.0 mm
11:30 AM 45.6°F7.6°C 26.6°F-3.0°C 47% 4.0 mph NNE6.4 kmh NNE 11.0 mph17.7 kmh 30.26 in1024.7 mb 0.00 in0.0 mm 0.00 in0.0 mm 0.00 in0.0 mm
11:32 AM 45.7°F7.6°C 26.6°F-3.0°C 47% 5.0 mph NE8.0 kmh NE 11.0 mph17.7 kmh 30.26 in1024.7 mb 0.00 in0.0 mm 0.00 in0.0 mm 0.00 in0.0 mm
11:34 AM 45.7°F7.6°C 26.1°F-3.3°C 46% 5.0 mph NNE8.0 kmh NNE 10.0 mph16.1 kmh 30.26 in1024.7 mb 0.00 in0.0 mm 0.00 in0.0 mm 0.00 in0.0 mm
11:36 AM 45.8°F7.7°C 26.2°F-3.2°C 46% 3.0 mph N4.8 kmh N 10.0 mph16.1 kmh 30.26 in1024.7 mb 0.00 in0.0 mm 0.00 in0.0 mm 0.00 in0.0 mm
11:38 AM 45.8°F7.7°C 26.2°F-3.2°C 46% 4.0 mph NE6.4 kmh NE 10.0 mph16.1 kmh 30.25 in1024.4 mb 0.00 in0.0 mm 0.00 in0.0 mm 0.00 in0.0 mm
11:40 AM 45.9°F7.7°C 26.3°F-3.2°C 46% 2.0 mph NNW3.2 kmh NNW 10.0 mph16.1 kmh 30.26 in1024.7 mb 0.00 in0.0 mm 0.00 in0.0 mm 0.00 in0.0 mm
11:42 AM 46.3°F7.9°C 26.7°F-2.9°C 46% 3.0 mph NNE4.8 kmh NNE 10.0 mph16.1 kmh 30.26 in1024.7 mb 0.00 in0.0 mm 0.00 in0.0 mm 0.00 in0.0 mm
11:44 AM 46.6°F8.1°C 26.9°F-2.8°C 46% 1.0 mph NE1.6 kmh NE 10.0 mph16.1 kmh 30.25 in1024.4 mb 0.00 in0.0 mm 0.00 in0.0 mm 0.00 in0.0 mm
11:46 AM 46.8°F8.2°C 27.1°F-2.7°C 46% 5.0 mph N8.0 kmh N 10.0 mph16.1 kmh 30.25 in1024.4 mb 0.00 in0.0 mm 0.00 in0.0 mm 0.00 in0.0 mm
11:48 AM 47.0°F8.3°C 26.8°F-2.9°C 45% 5.0 mph NNW8.0 kmh NNW 10.0 mph16.1 kmh 30.25 in1024.4 mb 0.00 in0.0 mm 0.00 in0.0 mm 0.00 in0.0 mm
11:50 AM 47.0°F8.3°C 26.8°F-2.9°C 45% 8.0 mph N12.9 kmh N 11.0 mph17.7 kmh 30.25 in1024.4 mb 0.00 in0.0 mm 0.00 in0.0 mm 0.00 in0.0 mm
11:52 AM 46.9°F8.3°C 26.7°F-2.9°C 45% 3.0 mph NNE4.8 kmh NNE 11.0 mph17.7 kmh 30.25 in1024.4 mb 0.00 in0.0 mm 0.00 in0.0 mm 0.00 in0.0 mm
11:54 AM 47.0°F8.3°C 26.2°F-3.2°C 44% 5.0 mph NE8.0 kmh NE 11.0 mph17.7 kmh 30.25 in1024.4 mb 0.00 in0.0 mm 0.00 in0.0 mm 0.00 in0.0 mm
11:55 AM 47.0°F8.3°C 26.2°F-3.2°C 44% 11.0 mph NE17.7 kmh NE 12.0 mph19.3 kmh 30.26 in1024.7 mb 0.00 in0.0 mm 0.00 in0.0 mm 0.00 in0.0 mm
11:58 AM 46.9°F8.3°C 26.1°F-3.3°C 44% 1.0 mph NNW1.6 kmh NNW 12.0 mph19.3 kmh 30.26 in1024.7 mb 0.00 in0.0 mm 0.00 in0.0 mm 0.00 in0.0 mm
12:00 PM 46.9°F8.3°C 26.7°F-2.9°C 45% 8.0 mph N12.9 kmh N 12.0 mph19.3 kmh 30.25 in1024.4 mb 0.00 in0.0 mm 0.00 in0.0 mm 0.00 in0.0 mm
12:02 PM 47.0°F8.3°C 26.2°F-3.2°C 44% 10.0 mph NE16.1 kmh NE 12.0 mph19.3 kmh 30.25 in1024.4 mb 0.00 in0.0 mm 0.00 in0.0 mm 0.00 in0.0 mm
12:04 PM 47.0°F8.3°C 26.8°F-2.9°C 45% 3.0 mph NE4.8 kmh NE 6.0 mph9.7 kmh 30.25 in1024.4 mb 0.00 in0.0 mm 0.00 in0.0 mm 0.00 in0.0 mm
12:06 PM 47.2°F8.4°C 27.0°F-2.8°C 45% 3.0 mph NNE4.8 kmh NNE 6.0 mph9.7 kmh 30.25 in1024.4 mb 0.00 in0.0 mm 0.00 in0.0 mm 0.00 in0.0 mm
12:08 PM 47.3°F8.5°C 26.5°F-3.1°C 44% 4.0 mph NNW6.4 kmh NNW 12.0 mph19.3 kmh 30.24 in1024.0 mb 0.00 in0.0 mm 0.00 in0.0 mm 0.00 in0.0 mm
12:10 PM 47.4°F8.6°C 26.0°F-3.3°C 43% 1.0 mph NW1.6 kmh NW 12.0 mph19.3 kmh 30.25 in1024.4 mb 0.00 in0.0 mm 0.00 in0.0 mm 0.00 in0.0 mm
12:12 PM 47.5°F8.6°C 26.1°F-3.3°C 43% 8.0 mph NNW12.9 kmh NNW 12.0 mph19.3 kmh 30.25 in1024.4 mb 0.00 in0.0 mm 0.00 in0.0 mm 0.00 in0.0 mm
12:14 PM 47.6°F8.7°C 26.2°F-3.2°C 43% 6.0 mph N9.7 kmh N 12.0 mph19.3 kmh 30.24 in1024.0 mb 0.00 in0.0 mm 0.00 in0.0 mm 0.00 in0.0 mm
12:16 PM 47.6°F8.7°C 26.2°F-3.2°C 43% 6.0 mph NNW9.7 kmh NNW 12.0 mph19.3 kmh 30.24 in1024.0 mb 0.00 in0.0 mm 0.00 in0.0 mm 0.00 in0.0 mm
12:18 PM 47.5°F8.6°C 26.1°F-3.3°C 43% 2.0 mph N3.2 kmh N 12.0 mph19.3 kmh 30.25 in1024.4 mb 0.00 in0.0 mm 0.00 in0.0 mm 0.00 in0.0 mm
12:20 PM 47.5°F8.6°C 26.1°F-3.3°C 43% 4.0 mph NNW6.4 kmh NNW 12.0 mph19.3 kmh 30.25 in1024.4 mb 0.00 in0.0 mm 0.00 in0.0 mm 0.00 in0.0 mm
12:22 PM 47.7°F8.7°C 26.3°F-3.2°C 43% 5.0 mph NW8.0 kmh NW 12.0 mph19.3 kmh 30.25 in1024.4 mb 0.00 in0.0 mm 0.00 in0.0 mm 0.00 in0.0 mm
12:24 PM 47.9°F8.8°C 26.5°F-3.1°C 43% 4.0 mph NNW6.4 kmh NNW 12.0 mph19.3 kmh 30.24 in1024.0 mb 0.00 in0.0 mm 0.00 in0.0 mm 0.00 in0.0 mm
12:26 PM 47.9°F8.8°C 25.9°F-3.4°C 42% 8.0 mph NNW12.9 kmh NNW 12.0 mph19.3 kmh 30.24 in1024.0 mb 0.00 in0.0 mm 0.00 in0.0 mm 0.00 in0.0 mm
12:28 PM 47.8°F8.8°C 26.4°F-3.1°C 43% 4.0 mph NW6.4 kmh NW 12.0 mph19.3 kmh 30.24 in1024.0 mb 0.00 in0.0 mm 0.00 in0.0 mm 0.00 in0.0 mm
12:30 PM 47.9°F8.8°C 26.5°F-3.1°C 43% 6.0 mph NNW9.7 kmh NNW 12.0 mph19.3 kmh 30.24 in1024.0 mb 0.00 in0.0 mm 0.00 in0.0 mm 0.00 in0.0 mm
12:32 PM 47.8°F8.8°C 26.4°F-3.1°C 43% 5.0 mph NNW8.0 kmh NNW 12.0 mph19.3 kmh 30.24 in1024.0 mb 0.00 in0.0 mm 0.00 in0.0 mm 0.00 in0.0 mm
12:34 PM 47.9°F8.8°C 26.5°F-3.1°C 43% 11.0 mph N17.7 kmh N 11.0 mph17.7 kmh 30.24 in1024.0 mb 0.00 in0.0 mm 0.00 in0.0 mm 0.00 in0.0 mm
12:36 PM 48.1°F8.9°C 26.7°F-2.9°C 43% 10.0 mph N16.1 kmh N 11.0 mph17.7 kmh 30.23 in1023.7 mb 0.00 in0.0 mm 0.00 in0.0 mm 0.00 in0.0 mm
12:38 PM 48.3°F9.1°C 26.9°F-2.8°C 43% 5.0 mph N8.0 kmh N 12.0 mph19.3 kmh 30.23 in1023.7 mb 0.00 in0.0 mm 0.00 in0.0 mm 0.00 in0.0 mm
12:40 PM 48.7°F9.3°C 26.7°F-2.9°C 42% 5.0 mph N8.0 kmh N 14.0 mph22.5 kmh 30.23 in1023.7 mb 0.00 in0.0 mm 0.00 in0.0 mm 0.00 in0.0 mm
12:42 PM 48.9°F9.4°C 26.8°F-2.9°C 42% 6.0 mph NE9.7 kmh NE 14.0 mph22.5 kmh 30.23 in1023.7 mb 0.00 in0.0 mm 0.00 in0.0 mm 0.00 in0.0 mm
12:44 PM 48.9°F9.4°C 26.3°F-3.2°C 41% 9.0 mph NE14.5 kmh NE 14.0 mph22.5 kmh 30.23 in1023.7 mb 0.00 in0.0 mm 0.00 in0.0 mm 0.00 in0.0 mm
12:46 PM 48.9°F9.4°C 26.3°F-3.2°C 41% 9.0 mph NNE14.5 kmh NNE 14.0 mph22.5 kmh 30.23 in1023.7 mb 0.00 in0.0 mm 0.00 in0.0 mm 0.00 in0.0 mm
12:48 PM 48.9°F9.4°C 26.3°F-3.2°C 41% 5.0 mph NE8.0 kmh NE 14.0 mph22.5 kmh 30.23 in1023.7 mb 0.00 in0.0 mm 0.00 in0.0 mm 0.00 in0.0 mm
12:50 PM 48.9°F9.4°C 26.3°F-3.2°C 41% 4.0 mph NE6.4 kmh NE 14.0 mph22.5 kmh 30.23 in1023.7 mb 0.00 in0.0 mm 0.00 in0.0 mm 0.00 in0.0 mm
12:52 PM 48.9°F9.4°C 26.3°F-3.2°C 41% 4.0 mph N6.4 kmh N 14.0 mph22.5 kmh 30.22 in1023.4 mb 0.00 in0.0 mm 0.00 in0.0 mm 0.00 in0.0 mm
12:54 PM 49.1°F9.5°C 25.8°F-3.4°C 40% 5.0 mph NE8.0 kmh NE 14.0 mph22.5 kmh 30.22 in1023.4 mb 0.00 in0.0 mm 0.00 in0.0 mm 0.00 in0.0 mm
12:56 PM 49.1°F9.5°C 26.4°F-3.1°C 41% 5.0 mph NNW8.0 kmh NNW 14.0 mph22.5 kmh 30.22 in1023.4 mb 0.00 in0.0 mm 0.00 in0.0 mm 0.00 in0.0 mm
12:58 PM 49.1°F9.5°C 26.4°F-3.1°C 41% 6.0 mph N9.7 kmh N 14.0 mph22.5 kmh 30.22 in1023.4 mb 0.00 in0.0 mm 0.00 in0.0 mm 0.00 in0.0 mm
01:00 PM 49.1°F9.5°C 26.4°F-3.1°C 41% 2.0 mph N3.2 kmh N 14.0 mph22.5 kmh 30.22 in1023.4 mb 0.00 in0.0 mm 0.00 in0.0 mm 0.00 in0.0 mm
01:02 PM 49.3°F9.6°C 27.2°F-2.7°C 42% 7.0 mph N11.3 kmh N 14.0 mph22.5 kmh 30.22 in1023.4 mb 0.00 in0.0 mm 0.00 in0.0 mm 0.00 in0.0 mm
01:04 PM 49.4°F9.7°C 26.7°F-2.9°C 41% 2.0 mph ENE3.2 kmh ENE 6.0 mph9.7 kmh 30.22 in1023.4 mb 0.00 in0.0 mm 0.00 in0.0 mm 0.00 in0.0 mm
01:06 PM 49.6°F9.8°C 26.3°F-3.2°C 40% 7.0 mph NNE11.3 kmh NNE 13.0 mph20.9 kmh 30.22 in1023.4 mb 0.00 in0.0 mm 0.00 in0.0 mm 0.00 in0.0 mm
01:08 PM 49.7°F9.8°C 26.4°F-3.1°C 40% 3.0 mph N4.8 kmh N 13.0 mph20.9 kmh 30.22 in1023.4 mb 0.00 in0.0 mm 0.00 in0.0 mm 0.00 in0.0 mm
01:10 PM 49.7°F9.8°C 26.4°F-3.1°C 40% 5.0 mph NW8.0 kmh NW 13.0 mph20.9 kmh 30.23 in1023.7 mb 0.00 in0.0 mm 0.00 in0.0 mm 0.00 in0.0 mm
01:12 PM 49.6°F9.8°C 26.3°F-3.2°C 40% 10.0 mph N16.1 kmh N 13.0 mph20.9 kmh 30.23 in1023.7 mb 0.00 in0.0 mm 0.00 in0.0 mm 0.00 in0.0 mm
01:14 PM 49.4°F9.7°C 26.7°F-2.9°C 41% 7.0 mph NE11.3 kmh NE 13.0 mph20.9 kmh 30.22 in1023.4 mb 0.00 in0.0 mm 0.00 in0.0 mm 0.00 in0.0 mm
01:16 PM 49.3°F9.6°C 26.0°F-3.3°C 40% 11.0 mph NNW17.7 kmh NNW 13.0 mph20.9 kmh 30.22 in1023.4 mb 0.00 in0.0 mm 0.00 in0.0 mm 0.00 in0.0 mm
01:18 PM 49.2°F9.6°C 25.9°F-3.4°C 40% 8.0 mph N12.9 kmh N 13.0 mph20.9 kmh 30.23 in1023.7 mb 0.00 in0.0 mm 0.00 in0.0 mm 0.00 in0.0 mm
01:20 PM 49.1°F9.5°C 25.8°F-3.4°C 40% 6.0 mph NNW9.7 kmh NNW 13.0 mph20.9 kmh 30.22 in1023.4 mb 0.00 in0.0 mm 0.00 in0.0 mm 0.00 in0.0 mm
01:22 PM 49.2°F9.6°C 26.5°F-3.1°C 41% 4.0 mph NW6.4 kmh NW 13.0 mph20.9 kmh 30.23 in1023.7 mb 0.00 in0.0 mm 0.00 in0.0 mm 0.00 in0.0 mm
01:24 PM 49.2°F9.6°C 25.9°F-3.4°C 40% 6.0 mph NNW9.7 kmh NNW 13.0 mph20.9 kmh 30.23 in1023.7 mb 0.00 in0.0 mm 0.00 in0.0 mm 0.00 in0.0 mm
01:26 PM 49.2°F9.6°C 25.9°F-3.4°C 40% 5.0 mph N8.0 kmh N 13.0 mph20.9 kmh 30.22 in1023.4 mb 0.00 in0.0 mm 0.00 in0.0 mm 0.00 in0.0 mm
01:28 PM 49.1°F9.5°C 25.8°F-3.4°C 40% 4.0 mph N6.4 kmh N 13.0 mph20.9 kmh 30.22 in1023.4 mb 0.00 in0.0 mm 0.00 in0.0 mm 0.00 in0.0 mm
01:30 PM 49.2°F9.6°C 25.9°F-3.4°C 40% 12.0 mph NNW19.3 kmh NNW 13.0 mph20.9 kmh 30.22 in1023.4 mb 0.00 in0.0 mm 0.00 in0.0 mm 0.00 in0.0 mm
01:32 PM 49.1°F9.5°C 25.8°F-3.4°C 40% 9.0 mph NNW14.5 kmh NNW 13.0 mph20.9 kmh 30.22 in1023.4 mb 0.00 in0.0 mm 0.00 in0.0 mm 0.00 in0.0 mm
01:34 PM 49.1°F9.5°C 25.8°F-3.4°C 40% 6.0 mph NNW9.7 kmh NNW 7.0 mph11.3 kmh 30.22 in1023.4 mb 0.00 in0.0 mm 0.00 in0.0 mm 0.00 in0.0 mm
01:35 PM 49.1°F9.5°C 26.4°F-3.1°C 41% 3.0 mph N4.8 kmh N 8.0 mph12.9 kmh 30.22 in1023.4 mb 0.00 in0.0 mm 0.00 in0.0 mm 0.00 in0.0 mm
01:38 PM 49.2°F9.6°C 25.9°F-3.4°C 40% 2.0 mph ENE3.2 kmh ENE 8.0 mph12.9 kmh 30.22 in1023.4 mb 0.00 in0.0 mm 0.00 in0.0 mm 0.00 in0.0 mm
01:40 PM 49.3°F9.6°C 26.0°F-3.3°C 40% 3.0 mph NE4.8 kmh NE 8.0 mph12.9 kmh 30.22 in1023.4 mb 0.00 in0.0 mm 0.00 in0.0 mm 0.00 in0.0 mm
01:42 PM 49.5°F9.7°C 26.2°F-3.2°C 40% 2.0 mph NNE3.2 kmh NNE 8.0 mph12.9 kmh 30.22 in1023.4 mb 0.00 in0.0 mm 0.00 in0.0 mm 0.00 in0.0 mm
01:44 PM 49.6°F9.8°C 26.3°F-3.2°C 40% 6.0 mph NW9.7 kmh NW 9.0 mph14.5 kmh 30.22 in1023.4 mb 0.00 in0.0 mm 0.00 in0.0 mm 0.00 in0.0 mm
01:46 PM 49.7°F9.8°C 26.4°F-3.1°C 40% 4.0 mph N6.4 kmh N 10.0 mph16.1 kmh 30.21 in1023.0 mb 0.00 in0.0 mm 0.00 in0.0 mm 0.00 in0.0 mm
01:48 PM 49.7°F9.8°C 26.4°F-3.1°C 40% 3.0 mph N4.8 kmh N 12.0 mph19.3 kmh 30.21 in1023.0 mb 0.00 in0.0 mm 0.00 in0.0 mm 0.00 in0.0 mm
01:50 PM 49.6°F9.8°C 26.3°F-3.2°C 40% 3.0 mph NE4.8 kmh NE 12.0 mph19.3 kmh 30.20 in1022.7 mb 0.00 in0.0 mm 0.00 in0.0 mm 0.00 in0.0 mm
01:52 PM 49.5°F9.7°C 26.2°F-3.2°C 40% 5.0 mph NNE8.0 kmh NNE 12.0 mph19.3 kmh 30.21 in1023.0 mb 0.00 in0.0 mm 0.00 in0.0 mm 0.00 in0.0 mm
01:54 PM 49.5°F9.7°C 26.2°F-3.2°C 40% 1.0 mph N1.6 kmh N 12.0 mph19.3 kmh 30.21 in1023.0 mb 0.00 in0.0 mm 0.00 in0.0 mm 0.00 in0.0 mm
01:56 PM 49.5°F9.7°C 26.2°F-3.2°C 40% 3.0 mph NNE4.8 kmh NNE 12.0 mph19.3 kmh 30.21 in1023.0 mb 0.00 in0.0 mm 0.00 in0.0 mm 0.00 in0.0 mm
01:58 PM 49.5°F9.7°C 26.2°F-3.2°C 40% 4.0 mph NE6.4 kmh NE 12.0 mph19.3 kmh 30.21 in1023.0 mb 0.00 in0.0 mm 0.00 in0.0 mm 0.00 in0.0 mm
02:00 PM 49.5°F9.7°C 26.2°F-3.2°C 40% 5.0 mph N8.0 kmh N 12.0 mph19.3 kmh 30.21 in1023.0 mb 0.00 in0.0 mm 0.00 in0.0 mm 0.00 in0.0 mm
02:02 PM 49.5°F9.7°C 26.2°F-3.2°C 40% 4.0 mph N6.4 kmh N 12.0 mph19.3 kmh 30.20 in1022.7 mb 0.00 in0.0 mm 0.00 in0.0 mm 0.00 in0.0 mm
02:04 PM 49.5°F9.7°C 26.2°F-3.2°C 40% 7.0 mph NNE11.3 kmh NNE 8.0 mph12.9 kmh 30.21 in1023.0 mb 0.00 in0.0 mm 0.00 in0.0 mm 0.00 in0.0 mm
02:06 PM 49.5°F9.7°C 26.2°F-3.2°C 40% 1.0 mph NE1.6 kmh NE 8.0 mph12.9 kmh 30.21 in1023.0 mb 0.00 in0.0 mm 0.00 in0.0 mm 0.00 in0.0 mm
02:08 PM 49.5°F9.7°C 26.2°F-3.2°C 40% 5.0 mph NE8.0 kmh NE 8.0 mph12.9 kmh 30.21 in1023.0 mb 0.00 in0.0 mm 0.00 in0.0 mm 0.00 in0.0 mm
02:10 PM 49.5°F9.7°C 26.2°F-3.2°C 40% 5.0 mph N8.0 kmh N 8.0 mph12.9 kmh 30.21 in1023.0 mb 0.00 in0.0 mm 0.00 in0.0 mm 0.00 in0.0 mm
02:12 PM 49.6°F9.8°C 25.7°F-3.5°C 39% 6.0 mph NNE9.7 kmh NNE 9.0 mph14.5 kmh 30.20 in1022.7 mb 0.00 in0.0 mm 0.00 in0.0 mm 0.00 in0.0 mm
02:14 PM 49.5°F9.7°C 25.6°F-3.6°C 39% 5.0 mph NNE8.0 kmh NNE 9.0 mph14.5 kmh 30.21 in1023.0 mb 0.00 in0.0 mm 0.00 in0.0 mm 0.00 in0.0 mm
02:16 PM 49.5°F9.7°C 25.6°F-3.6°C 39% 4.0 mph NE6.4 kmh NE 9.0 mph14.5 kmh 30.21 in1023.0 mb 0.00 in0.0 mm 0.00 in0.0 mm 0.00 in0.0 mm
02:18 PM 49.5°F9.7°C 25.6°F-3.6°C 39% 3.0 mph NNE4.8 kmh NNE 9.0 mph14.5 kmh 30.22 in1023.4 mb 0.00 in0.0 mm 0.00 in0.0 mm 0.00 in0.0 mm
02:20 PM 49.4°F9.7°C 25.5°F-3.6°C 39% 5.0 mph NE8.0 kmh NE 9.0 mph14.5 kmh 30.22 in1023.4 mb 0.00 in0.0 mm 0.00 in0.0 mm 0.00 in0.0 mm
02:22 PM 49.4°F9.7°C 25.5°F-3.6°C 39% 5.0 mph NNE8.0 kmh NNE 10.0 mph16.1 kmh 30.22 in1023.4 mb 0.00 in0.0 mm 0.00 in0.0 mm 0.00 in0.0 mm
02:24 PM 49.3°F9.6°C 25.4°F-3.7°C 39% 3.0 mph NE4.8 kmh NE 12.0 mph19.3 kmh 30.22 in1023.4 mb 0.00 in0.0 mm 0.00 in0.0 mm 0.00 in0.0 mm
02:26 PM 49.3°F9.6°C 25.4°F-3.7°C 39% 2.0 mph NE3.2 kmh NE 12.0 mph19.3 kmh 30.22 in1023.4 mb 0.00 in0.0 mm 0.00 in0.0 mm 0.00 in0.0 mm
02:28 PM 49.4°F9.7°C 26.1°F-3.3°C 40% 4.0 mph N6.4 kmh N 12.0 mph19.3 kmh 30.22 in1023.4 mb 0.00 in0.0 mm 0.00 in0.0 mm 0.00 in0.0 mm
02:30 PM 49.4°F9.7°C 26.1°F-3.3°C 40% 2.0 mph NE3.2 kmh NE 12.0 mph19.3 kmh 30.22 in1023.4 mb 0.00 in0.0 mm 0.00 in0.0 mm 0.00 in0.0 mm
02:32 PM 49.5°F9.7°C 26.2°F-3.2°C 40% 2.0 mph N3.2 kmh N 12.0 mph19.3 kmh 30.22 in1023.4 mb 0.00 in0.0 mm 0.00 in0.0 mm 0.00 in0.0 mm
02:34 PM 49.6°F9.8°C 25.7°F-3.5°C 39% 1.0 mph NNE1.6 kmh NNE 8.0 mph12.9 kmh 30.22 in1023.4 mb 0.00 in0.0 mm 0.00 in0.0 mm 0.00 in0.0 mm
02:36 PM 49.6°F9.8°C 25.7°F-3.5°C 39% 5.0 mph N8.0 kmh N 8.0 mph12.9 kmh 30.22 in1023.4 mb 0.00 in0.0 mm 0.00 in0.0 mm 0.00 in0.0 mm
02:38 PM 49.5°F9.7°C 26.2°F-3.2°C 40% 2.0 mph NE3.2 kmh NE 8.0 mph12.9 kmh 30.22 in1023.4 mb 0.00 in0.0 mm 0.00 in0.0 mm 0.00 in0.0 mm
02:40 PM 49.5°F9.7°C 26.2°F-3.2°C 40% 2.0 mph NNE3.2 kmh NNE 8.0 mph12.9 kmh 30.22 in1023.4 mb 0.00 in0.0 mm 0.00 in0.0 mm 0.00 in0.0 mm
02:42 PM 49.6°F9.8°C 26.3°F-3.2°C 40% 1.0 mph NNW1.6 kmh NNW 8.0 mph12.9 kmh 30.22 in1023.4 mb 0.00 in0.0 mm 0.00 in0.0 mm 0.00 in0.0 mm
02:43 PM 49.7°F9.8°C 26.4°F-3.1°C 40% 5.0 mph ENE8.0 kmh ENE 8.0 mph12.9 kmh 30.23 in1023.7 mb 0.00 in0.0 mm 0.00 in0.0 mm 0.00 in0.0 mm
02:46 PM 49.8°F9.9°C 25.9°F-3.4°C 39% 3.0 mph N4.8 kmh N 8.0 mph12.9 kmh 30.22 in1023.4 mb 0.00 in0.0 mm 0.00 in0.0 mm 0.00 in0.0 mm
02:48 PM 49.7°F9.8°C 25.1°F-3.8°C 38% 6.0 mph N9.7 kmh N 8.0 mph12.9 kmh 30.22 in1023.4 mb 0.00 in0.0 mm 0.00 in0.0 mm 0.00 in0.0 mm
02:50 PM 49.7°F9.8°C 25.1°F-3.8°C 38% 6.0 mph ENE9.7 kmh ENE 8.0 mph12.9 kmh 30.22 in1023.4 mb 0.00 in0.0 mm 0.00 in0.0 mm 0.00 in0.0 mm
02:52 PM 49.8°F9.9°C 25.2°F-3.8°C 38% 11.0 mph NE17.7 kmh NE 12.0 mph19.3 kmh 30.22 in1023.4 mb 0.00 in0.0 mm 0.00 in0.0 mm 0.00 in0.0 mm
02:54 PM 49.6°F9.8°C 25.1°F-3.8°C 38% 6.0 mph NE9.7 kmh NE 12.0 mph19.3 kmh 30.22 in1023.4 mb 0.00 in0.0 mm 0.00 in0.0 mm 0.00 in0.0 mm
02:56 PM 49.5°F9.7°C 25.0°F-3.9°C 38% 11.0 mph NE17.7 kmh NE 12.0 mph19.3 kmh 30.22 in1023.4 mb 0.00 in0.0 mm 0.00 in0.0 mm 0.00 in0.0 mm
02:58 PM 49.4°F9.7°C 25.5°F-3.6°C 39% 4.0 mph NE6.4 kmh NE 12.0 mph19.3 kmh 30.22 in1023.4 mb 0.00 in0.0 mm 0.00 in0.0 mm 0.00 in0.0 mm
03:00 PM 49.3°F9.6°C 25.4°F-3.7°C 39% 4.0 mph NNE6.4 kmh NNE 12.0 mph19.3 kmh 30.21 in1023.0 mb 0.00 in0.0 mm 0.00 in0.0 mm 0.00 in0.0 mm
03:02 PM 49.3°F9.6°C 26.0°F-3.3°C 40% 5.0 mph N8.0 kmh N 12.0 mph19.3 kmh 30.21 in1023.0 mb 0.00 in0.0 mm 0.00 in0.0 mm 0.00 in0.0 mm
03:04 PM 49.2°F9.6°C 25.9°F-3.4°C 40% 3.0 mph NNE4.8 kmh NNE 5.0 mph8.0 kmh 30.22 in1023.4 mb 0.00 in0.0 mm 0.00 in0.0 mm 0.00 in0.0 mm
03:06 PM 49.3°F9.6°C 26.0°F-3.3°C 40% 2.0 mph N3.2 kmh N 10.0 mph16.1 kmh 30.22 in1023.4 mb 0.00 in0.0 mm 0.00 in0.0 mm 0.00 in0.0 mm
03:08 PM 49.3°F9.6°C 26.6°F-3.0°C 41% 4.0 mph N6.4 kmh N 10.0 mph16.1 kmh 30.21 in1023.0 mb 0.00 in0.0 mm 0.00 in0.0 mm 0.00 in0.0 mm
03:10 PM 49.2°F9.6°C 26.5°F-3.1°C 41% 3.0 mph N4.8 kmh N 10.0 mph16.1 kmh 30.21 in1023.0 mb 0.00 in0.0 mm 0.00 in0.0 mm 0.00 in0.0 mm
03:12 PM 49.2°F9.6°C 26.5°F-3.1°C 41% 3.0 mph NNW4.8 kmh NNW 10.0 mph16.1 kmh 30.21 in1023.0 mb 0.00 in0.0 mm 0.00 in0.0 mm 0.00 in0.0 mm
03:14 PM 49.3°F9.6°C 27.2°F-2.7°C 42% 5.0 mph NW8.0 kmh NW 10.0 mph16.1 kmh 30.21 in1023.0 mb 0.00 in0.0 mm 0.00 in0.0 mm 0.00 in0.0 mm
03:16 PM 49.3°F9.6°C 27.2°F-2.7°C 42% 6.0 mph NW9.7 kmh NW 10.0 mph16.1 kmh 30.22 in1023.4 mb 0.00 in0.0 mm 0.00 in0.0 mm 0.00 in0.0 mm
03:18 PM 49.3°F9.6°C 26.6°F-3.0°C 41% 4.0 mph N6.4 kmh N 10.0 mph16.1 kmh 30.21 in1023.0 mb 0.00 in0.0 mm 0.00 in0.0 mm 0.00 in0.0 mm
03:20 PM 49.3°F9.6°C 27.2°F-2.7°C 42% 3.0 mph NNE4.8 kmh NNE 10.0 mph16.1 kmh 30.22 in1023.4 mb 0.00 in0.0 mm 0.00 in0.0 mm 0.00 in0.0 mm
03:22 PM 49.3°F9.6°C 27.2°F-2.7°C 42% 6.0 mph NNW9.7 kmh NNW 10.0 mph16.1 kmh 30.22 in1023.4 mb 0.00 in0.0 mm 0.00 in0.0 mm 0.00 in0.0 mm
03:24 PM 49.3°F9.6°C 26.6°F-3.0°C 41% 4.0 mph NW6.4 kmh NW 10.0 mph16.1 kmh 30.22 in1023.4 mb 0.00 in0.0 mm 0.00 in0.0 mm 0.00 in0.0 mm
03:26 PM 49.2°F9.6°C 27.1°F-2.7°C 42% 2.0 mph NNW3.2 kmh NNW 10.0 mph16.1 kmh 30.23 in1023.7 mb 0.00 in0.0 mm 0.00 in0.0 mm 0.00 in0.0 mm
03:28 PM 49.1°F9.5°C 27.0°F-2.8°C 42% 3.0 mph NNW4.8 kmh NNW 10.0 mph16.1 kmh 30.23 in1023.7 mb 0.00 in0.0 mm 0.00 in0.0 mm 0.00 in0.0 mm
03:30 PM 49.1°F9.5°C 27.0°F-2.8°C 42% 5.0 mph NW8.0 kmh NW 10.0 mph16.1 kmh 30.22 in1023.4 mb 0.00 in0.0 mm 0.00 in0.0 mm 0.00 in0.0 mm
03:32 PM 49.1°F9.5°C 27.0°F-2.8°C 42% 5.0 mph NW8.0 kmh NW 10.0 mph16.1 kmh 30.22 in1023.4 mb 0.00 in0.0 mm 0.00 in0.0 mm 0.00 in0.0 mm
03:34 PM 49.1°F9.5°C 27.0°F-2.8°C 42% 10.0 mph NNW16.1 kmh NNW 10.0 mph16.1 kmh 30.22 in1023.4 mb 0.00 in0.0 mm 0.00 in0.0 mm 0.00 in0.0 mm
03:36 PM 49.1°F9.5°C 27.0°F-2.8°C 42% 10.0 mph N16.1 kmh N 12.0 mph19.3 kmh 30.22 in1023.4 mb 0.00 in0.0 mm 0.00 in0.0 mm 0.00 in0.0 mm
03:38 PM 49.1°F9.5°C 27.0°F-2.8°C 42% 4.0 mph N6.4 kmh N 12.0 mph19.3 kmh 30.22 in1023.4 mb 0.00 in0.0 mm 0.00 in0.0 mm 0.00 in0.0 mm
03:40 PM 49.0°F9.4°C 26.9°F-2.8°C 42% 7.0 mph N11.3 kmh N 12.0 mph19.3 kmh 30.22 in1023.4 mb 0.00 in0.0 mm 0.00 in0.0 mm 0.00 in0.0 mm
03:42 PM 49.1°F9.5°C 27.0°F-2.8°C 42% 2.0 mph NW3.2 kmh NW 12.0 mph19.3 kmh 30.22 in1023.4 mb 0.00 in0.0 mm 0.00 in0.0 mm 0.00 in0.0 mm
03:44 PM 48.9°F9.4°C 26.8°F-2.9°C 42% 4.0 mph N6.4 kmh N 12.0 mph19.3 kmh 30.22 in1023.4 mb 0.00 in0.0 mm 0.00 in0.0 mm 0.00 in0.0 mm
03:46 PM 48.9°F9.4°C 27.4°F-2.6°C 43% 4.0 mph NNW6.4 kmh NNW 12.0 mph19.3 kmh 30.22 in1023.4 mb 0.00 in0.0 mm 0.00 in0.0 mm 0.00 in0.0 mm
03:48 PM 48.9°F9.4°C 27.4°F-2.6°C 43% 7.0 mph NNE11.3 kmh NNE 12.0 mph19.3 kmh 30.22 in1023.4 mb 0.00 in0.0 mm 0.00 in0.0 mm 0.00 in0.0 mm
03:50 PM 48.9°F9.4°C 28.0°F-2.2°C 44% 1.0 mph N1.6 kmh N 12.0 mph19.3 kmh 30.22 in1023.4 mb 0.00 in0.0 mm 0.00 in0.0 mm 0.00 in0.0 mm
03:52 PM 49.0°F9.4°C 28.1°F-2.2°C 44% 4.0 mph N6.4 kmh N 12.0 mph19.3 kmh 30.22 in1023.4 mb 0.00 in0.0 mm 0.00 in0.0 mm 0.00 in0.0 mm
03:54 PM 48.9°F9.4°C 27.4°F-2.6°C 43% 3.0 mph N4.8 kmh N 12.0 mph19.3 kmh 30.22 in1023.4 mb 0.00 in0.0 mm 0.00 in0.0 mm 0.00 in0.0 mm
03:56 PM 48.9°F9.4°C 27.4°F-2.6°C 43% 1.0 mph NNW1.6 kmh NNW 12.0 mph19.3 kmh 30.22 in1023.4 mb 0.00 in0.0 mm 0.00 in0.0 mm 0.00 in0.0 mm
03:58 PM 48.8°F9.3°C 27.9°F-2.3°C 44% 3.0 mph NW4.8 kmh NW 12.0 mph19.3 kmh 30.22 in1023.4 mb 0.00 in0.0 mm 0.00 in0.0 mm 0.00 in0.0 mm
04:00 PM 48.8°F9.3°C 27.3°F-2.6°C 43% 2.0 mph NNW3.2 kmh NNW 12.0 mph19.3 kmh 30.22 in1023.4 mb 0.00 in0.0 mm 0.00 in0.0 mm 0.00 in0.0 mm
04:02 PM 48.8°F9.3°C 27.9°F-2.3°C 44% 7.0 mph N11.3 kmh N 12.0 mph19.3 kmh 30.22 in1023.4 mb 0.00 in0.0 mm 0.00 in0.0 mm 0.00 in0.0 mm
04:04 PM 48.7°F9.3°C 27.8°F-2.3°C 44% 7.0 mph NNE11.3 kmh NNE 8.0 mph12.9 kmh 30.21 in1023.0 mb 0.00 in0.0 mm 0.00 in0.0 mm 0.00 in0.0 mm
04:06 PM 48.8°F9.3°C 27.3°F-2.6°C 43% 6.0 mph NNE9.7 kmh NNE 11.0 mph17.7 kmh 30.20 in1022.7 mb 0.00 in0.0 mm 0.00 in0.0 mm 0.00 in0.0 mm
04:08 PM 48.7°F9.3°C 27.8°F-2.3°C 44% 4.0 mph NNE6.4 kmh NNE 11.0 mph17.7 kmh 30.20 in1022.7 mb 0.00 in0.0 mm 0.00 in0.0 mm 0.00 in0.0 mm
04:10 PM 48.7°F9.3°C 27.8°F-2.3°C 44% 3.0 mph N4.8 kmh N 11.0 mph17.7 kmh 30.21 in1023.0 mb 0.00 in0.0 mm 0.00 in0.0 mm 0.00 in0.0 mm
04:12 PM 48.6°F9.2°C 27.7°F-2.4°C 44% Calm Calm 11.0 mph17.7 kmh 30.21 in1023.0 mb 0.00 in0.0 mm 0.00 in0.0 mm 0.00 in0.0 mm
04:14 PM 48.7°F9.3°C 27.8°F-2.3°C 44% 5.0 mph NE8.0 kmh NE 11.0 mph17.7 kmh 30.21 in1023.0 mb 0.00 in0.0 mm 0.00 in0.0 mm 0.00 in0.0 mm
04:16 PM 48.7°F9.3°C 27.2°F-2.7°C 43% 6.0 mph N9.7 kmh N 11.0 mph17.7 kmh 30.21 in1023.0 mb 0.00 in0.0 mm 0.00 in0.0 mm 0.00 in0.0 mm
04:18 PM 48.7°F9.3°C 27.2°F-2.7°C 43% 9.0 mph N14.5 kmh N 11.0 mph17.7 kmh 30.21 in1023.0 mb 0.00 in0.0 mm 0.00 in0.0 mm 0.00 in0.0 mm
04:20 PM 48.6°F9.2°C 26.6°F-3.0°C 42% 7.0 mph N11.3 kmh N 11.0 mph17.7 kmh 30.21 in1023.0 mb 0.00 in0.0 mm 0.00 in0.0 mm 0.00 in0.0 mm
04:22 PM 48.6°F9.2°C 26.6°F-3.0°C 42% 5.0 mph NNE8.0 kmh NNE 11.0 mph17.7 kmh 30.21 in1023.0 mb 0.00 in0.0 mm 0.00 in0.0 mm 0.00 in0.0 mm
04:24 PM 48.5°F9.2°C 26.5°F-3.1°C 42% 5.0 mph NE8.0 kmh NE 11.0 mph17.7 kmh 30.22 in1023.4 mb 0.00 in0.0 mm 0.00 in0.0 mm 0.00 in0.0 mm
04:26 PM 48.6°F9.2°C 26.6°F-3.0°C 42% 5.0 mph NNE8.0 kmh NNE 11.0 mph17.7 kmh 30.22 in1023.4 mb 0.00 in0.0 mm 0.00 in0.0 mm 0.00 in0.0 mm
04:28 PM 48.5°F9.2°C 27.0°F-2.8°C 43% 4.0 mph NE6.4 kmh NE 11.0 mph17.7 kmh 30.22 in1023.4 mb 0.00 in0.0 mm 0.00 in0.0 mm 0.00 in0.0 mm
04:30 PM 48.5°F9.2°C 27.0°F-2.8°C 43% 4.0 mph NNE6.4 kmh NNE 11.0 mph17.7 kmh 30.21 in1023.0 mb 0.00 in0.0 mm 0.00 in0.0 mm 0.00 in0.0 mm
04:32 PM 48.5°F9.2°C 27.0°F-2.8°C 43% 3.0 mph NNE4.8 kmh NNE 11.0 mph17.7 kmh 30.21 in1023.0 mb 0.00 in0.0 mm 0.00 in0.0 mm 0.00 in0.0 mm
04:34 PM 48.5°F9.2°C 27.0°F-2.8°C 43% 4.0 mph NE6.4 kmh NE 6.0 mph9.7 kmh 30.22 in1023.4 mb 0.00 in0.0 mm 0.00 in0.0 mm 0.00 in0.0 mm
04:36 PM 48.5°F9.2°C 27.0°F-2.8°C 43% 5.0 mph N8.0 kmh N 8.0 mph12.9 kmh 30.21 in1023.0 mb 0.00 in0.0 mm 0.00 in0.0 mm 0.00 in0.0 mm
04:38 PM 48.5°F9.2°C 27.6°F-2.4°C 44% 3.0 mph NE4.8 kmh NE 12.0 mph19.3 kmh 30.21 in1023.0 mb 0.00 in0.0 mm 0.00 in0.0 mm 0.00 in0.0 mm
04:40 PM 48.4°F9.1°C 28.1°F-2.2°C 45% 5.0 mph NE8.0 kmh NE 12.0 mph19.3 kmh 30.21 in1023.0 mb 0.00 in0.0 mm 0.00 in0.0 mm 0.00 in0.0 mm
04:42 PM 48.3°F9.1°C 28.5°F-1.9°C 46% 5.0 mph NNE8.0 kmh NNE 12.0 mph19.3 kmh 30.21 in1023.0 mb 0.00 in0.0 mm 0.00 in0.0 mm 0.00 in0.0 mm
04:44 PM 48.3°F9.1°C 29.0°F-1.7°C 47% 7.0 mph NE11.3 kmh NE 12.0 mph19.3 kmh 30.21 in1023.0 mb 0.00 in0.0 mm 0.00 in0.0 mm 0.00 in0.0 mm
04:46 PM 48.2°F9.0°C 28.9°F-1.7°C 47% 7.0 mph NNE11.3 kmh NNE 12.0 mph19.3 kmh 30.21 in1023.0 mb 0.00 in0.0 mm 0.00 in0.0 mm 0.00 in0.0 mm
04:48 PM 48.0°F8.9°C 28.2°F-2.1°C 46% 6.0 mph NE9.7 kmh NE 12.0 mph19.3 kmh 30.21 in1023.0 mb 0.00 in0.0 mm 0.00 in0.0 mm 0.00 in0.0 mm
04:50 PM 48.0°F8.9°C 28.8°F-1.8°C 47% 1.0 mph NNW1.6 kmh NNW 12.0 mph19.3 kmh 30.22 in1023.4 mb 0.00 in0.0 mm 0.00 in0.0 mm 0.00 in0.0 mm
04:52 PM 48.0°F8.9°C 29.3°F-1.5°C 48% 3.0 mph NE4.8 kmh NE 12.0 mph19.3 kmh 30.22 in1023.4 mb 0.00 in0.0 mm 0.00 in0.0 mm 0.00 in0.0 mm
04:54 PM 48.0°F8.9°C 28.8°F-1.8°C 47% 3.0 mph NE4.8 kmh NE 12.0 mph19.3 kmh 30.22 in1023.4 mb 0.00 in0.0 mm 0.00 in0.0 mm 0.00 in0.0 mm
04:56 PM 47.9°F8.8°C 28.7°F-1.8°C 47% Calm Calm 12.0 mph19.3 kmh 30.23 in1023.7 mb 0.00 in0.0 mm 0.00 in0.0 mm 0.00 in0.0 mm
04:58 PM 47.9°F8.8°C 29.2°F-1.6°C 48% 3.0 mph NE4.8 kmh NE 12.0 mph19.3 kmh 30.23 in1023.7 mb 0.00 in0.0 mm 0.00 in0.0 mm 0.00 in0.0 mm
05:00 PM 47.9°F8.8°C 28.7°F-1.8°C 47% 3.0 mph NNE4.8 kmh NNE 12.0 mph19.3 kmh 30.23 in1023.7 mb 0.00 in0.0 mm 0.00 in0.0 mm 0.00 in0.0 mm
05:02 PM 47.9°F8.8°C 29.2°F-1.6°C 48% 4.0 mph NNE6.4 kmh NNE 12.0 mph19.3 kmh 30.23 in1023.7 mb 0.00 in0.0 mm 0.00 in0.0 mm 0.00 in0.0 mm
05:04 PM 47.9°F8.8°C 29.2°F-1.6°C 48% 1.0 mph NE1.6 kmh NE 3.0 mph4.8 kmh 30.23 in1023.7 mb 0.00 in0.0 mm 0.00 in0.0 mm 0.00 in0.0 mm
05:06 PM 47.9°F8.8°C 29.7°F-1.3°C 49% 1.0 mph NE1.6 kmh NE 3.0 mph4.8 kmh 30.23 in1023.7 mb 0.00 in0.0 mm 0.00 in0.0 mm 0.00 in0.0 mm
05:08 PM 47.9°F8.8°C 29.7°F-1.3°C 49% Calm Calm 4.0 mph6.4 kmh 30.23 in1023.7 mb 0.00 in0.0 mm 0.00 in0.0 mm 0.00 in0.0 mm
05:10 PM 47.9°F8.8°C 29.2°F-1.6°C 48% 4.0 mph NE6.4 kmh NE 5.0 mph8.0 kmh 30.23 in1023.7 mb 0.00 in0.0 mm 0.00 in0.0 mm 0.00 in0.0 mm
05:12 PM 47.9°F8.8°C 29.2°F-1.6°C 48% 2.0 mph NE3.2 kmh NE 5.0 mph8.0 kmh 30.23 in1023.7 mb 0.00 in0.0 mm 0.00 in0.0 mm 0.00 in0.0 mm
05:14 PM 47.9°F8.8°C 29.7°F-1.3°C 49% 5.0 mph ENE8.0 kmh ENE 5.0 mph8.0 kmh 30.23 in1023.7 mb 0.00 in0.0 mm 0.00 in0.0 mm 0.00 in0.0 mm
05:16 PM 47.9°F8.8°C 29.2°F-1.6°C 48% 3.0 mph NE4.8 kmh NE 5.0 mph8.0 kmh 30.23 in1023.7 mb 0.00 in0.0 mm 0.00 in0.0 mm 0.00 in0.0 mm
05:18 PM 47.9°F8.8°C 29.2°F-1.6°C 48% 2.0 mph NE3.2 kmh NE 6.0 mph9.7 kmh 30.23 in1023.7 mb 0.00 in0.0 mm 0.00 in0.0 mm 0.00 in0.0 mm
05:20 PM 47.9°F8.8°C 29.2°F-1.6°C 48% 5.0 mph ENE8.0 kmh ENE 6.0 mph9.7 kmh 30.23 in1023.7 mb 0.00 in0.0 mm 0.00 in0.0 mm 0.00 in0.0 mm
05:21 PM 47.9°F8.8°C 29.2°F-1.6°C 48% 5.0 mph ENE8.0 kmh ENE 7.0 mph11.3 kmh 30.23 in1023.7 mb 0.00 in0.0 mm 0.00 in0.0 mm 0.00 in0.0 mm
05:24 PM 47.9°F8.8°C 29.2°F-1.6°C 48% 1.0 mph NE1.6 kmh NE 7.0 mph11.3 kmh 30.23 in1023.7 mb 0.00 in0.0 mm 0.00 in0.0 mm 0.00 in0.0 mm
05:26 PM 47.9°F8.8°C 29.7°F-1.3°C 49% 2.0 mph NE3.2 kmh NE 7.0 mph11.3 kmh 30.23 in1023.7 mb 0.00 in0.0 mm 0.00 in0.0 mm 0.00 in0.0 mm
05:28 PM 47.9°F8.8°C 30.2°F-1.0°C 50% 2.0 mph NE3.2 kmh NE 7.0 mph11.3 kmh 30.23 in1023.7 mb 0.00 in0.0 mm 0.00 in0.0 mm 0.00 in0.0 mm
05:30 PM 47.9°F8.8°C 30.7°F-0.7°C 51% 3.0 mph E4.8 kmh E 7.0 mph11.3 kmh 30.23 in1023.7 mb 0.00 in0.0 mm 0.00 in0.0 mm 0.00 in0.0 mm
05:32 PM 47.9°F8.8°C 30.7°F-0.7°C 51% 4.0 mph NE6.4 kmh NE 7.0 mph11.3 kmh 30.23 in1023.7 mb 0.00 in0.0 mm 0.00 in0.0 mm 0.00 in0.0 mm
05:34 PM 47.8°F8.8°C 30.6°F-0.8°C 51% 2.0 mph NE3.2 kmh NE 4.0 mph6.4 kmh 30.24 in1024.0 mb 0.00 in0.0 mm 0.00 in0.0 mm 0.00 in0.0 mm
05:36 PM 47.8°F8.8°C 31.1°F-0.5°C 52% 5.0 mph ENE8.0 kmh ENE 5.0 mph8.0 kmh 30.24 in1024.0 mb 0.00 in0.0 mm 0.00 in0.0 mm 0.00 in0.0 mm
05:38 PM 47.8°F8.8°C 30.6°F-0.8°C 51% 5.0 mph E8.0 kmh E 6.0 mph9.7 kmh 30.23 in1023.7 mb 0.00 in0.0 mm 0.00 in0.0 mm 0.00 in0.0 mm
05:40 PM 47.8°F8.8°C 30.6°F-0.8°C 51% 4.0 mph NE6.4 kmh NE 7.0 mph11.3 kmh 30.23 in1023.7 mb 0.00 in0.0 mm 0.00 in0.0 mm 0.00 in0.0 mm
05:42 PM 47.7°F8.7°C 30.5°F-0.8°C 51% 2.0 mph NE3.2 kmh NE 7.0 mph11.3 kmh 30.23 in1023.7 mb 0.00 in0.0 mm 0.00 in0.0 mm 0.00 in0.0 mm
05:44 PM 47.7°F8.7°C 30.5°F-0.8°C 51% 1.0 mph ENE1.6 kmh ENE 7.0 mph11.3 kmh 30.23 in1023.7 mb 0.00 in0.0 mm 0.00 in0.0 mm 0.00 in0.0 mm
05:46 PM 47.7°F8.7°C 31.0°F-0.6°C 52% 3.0 mph NE4.8 kmh NE 7.0 mph11.3 kmh 30.23 in1023.7 mb 0.00 in0.0 mm 0.00 in0.0 mm 0.00 in0.0 mm
05:48 PM 47.7°F8.7°C 31.0°F-0.6°C 52% 4.0 mph NE6.4 kmh NE 7.0 mph11.3 kmh 30.23 in1023.7 mb 0.00 in0.0 mm 0.00 in0.0 mm 0.00 in0.0 mm
05:50 PM 47.7°F8.7°C 31.0°F-0.6°C 52% 2.0 mph NE3.2 kmh NE 7.0 mph11.3 kmh 30.22 in1023.4 mb 0.00 in0.0 mm 0.00 in0.0 mm 0.00 in0.0 mm
05:52 PM 47.7°F8.7°C 31.0°F-0.6°C 52% 5.0 mph NE8.0 kmh NE 7.0 mph11.3 kmh 30.22 in1023.4 mb 0.00 in0.0 mm 0.00 in0.0 mm 0.00 in0.0 mm
05:54 PM 47.6°F8.7°C 31.3°F-0.4°C 53% 4.0 mph NE6.4 kmh NE 7.0 mph11.3 kmh 30.22 in1023.4 mb 0.00 in0.0 mm 0.00 in0.0 mm 0.00 in0.0 mm
05:56 PM 47.6°F8.7°C 31.3°F-0.4°C 53% 5.0 mph NE8.0 kmh NE 7.0 mph11.3 kmh 30.22 in1023.4 mb 0.00 in0.0 mm 0.00 in0.0 mm 0.00 in0.0 mm
05:58 PM 47.6°F8.7°C 30.9°F-0.6°C 52% 7.0 mph NE11.3 kmh NE 7.0 mph11.3 kmh 30.22 in1023.4 mb 0.00 in0.0 mm 0.00 in0.0 mm 0.00 in0.0 mm
06:00 PM 47.6°F8.7°C 30.9°F-0.6°C 52% 4.0 mph ENE6.4 kmh ENE 7.0 mph11.3 kmh 30.22 in1023.4 mb 0.00 in0.0 mm 0.00 in0.0 mm 0.00 in0.0 mm
06:02 PM 47.6°F8.7°C 30.9°F-0.6°C 52% 3.0 mph ENE4.8 kmh ENE 7.0 mph11.3 kmh 30.22 in1023.4 mb 0.00 in0.0 mm 0.00 in0.0 mm 0.00 in0.0 mm
06:04 PM 47.6°F8.7°C 30.9°F-0.6°C 52% 3.0 mph NE4.8 kmh NE 5.0 mph8.0 kmh 30.22 in1023.4 mb 0.00 in0.0 mm 0.00 in0.0 mm 0.00 in0.0 mm
06:06 PM 47.7°F8.7°C 31.0°F-0.6°C 52% 2.0 mph NNE3.2 kmh NNE 5.0 mph8.0 kmh 30.23 in1023.7 mb 0.00 in0.0 mm 0.00 in0.0 mm 0.00 in0.0 mm
06:08 PM 47.7°F8.7°C 31.0°F-0.6°C 52% 4.0 mph NE6.4 kmh NE 5.0 mph8.0 kmh 30.22 in1023.4 mb 0.00 in0.0 mm 0.00 in0.0 mm 0.00 in0.0 mm
06:10 PM 47.7°F8.7°C 31.0°F-0.6°C 52% 3.0 mph NE4.8 kmh NE 8.0 mph12.9 kmh 30.22 in1023.4 mb 0.00 in0.0 mm 0.00 in0.0 mm 0.00 in0.0 mm
06:12 PM 47.7°F8.7°C 31.0°F-0.6°C 52% 1.0 mph NNE1.6 kmh NNE 8.0 mph12.9 kmh 30.22 in1023.4 mb 0.00 in0.0 mm 0.00 in0.0 mm 0.00 in0.0 mm
06:14 PM 47.7°F8.7°C 31.0°F-0.6°C 52% 2.0 mph NE3.2 kmh NE 8.0 mph12.9 kmh 30.23 in1023.7 mb 0.00 in0.0 mm 0.00 in0.0 mm 0.00 in0.0 mm
06:16 PM 47.7°F8.7°C 31.0°F-0.6°C 52% 2.0 mph NE3.2 kmh NE 8.0 mph12.9 kmh 30.23 in1023.7 mb 0.00 in0.0 mm 0.00 in0.0 mm 0.00 in0.0 mm
06:18 PM 47.7°F8.7°C 30.5°F-0.8°C 51% 1.0 mph NE1.6 kmh NE 8.0 mph12.9 kmh 30.23 in1023.7 mb 0.00 in0.0 mm 0.00 in0.0 mm 0.00 in0.0 mm
06:20 PM 47.7°F8.7°C 30.5°F-0.8°C 51% 2.0 mph NE3.2 kmh NE 8.0 mph12.9 kmh 30.23 in1023.7 mb 0.00 in0.0 mm 0.00 in0.0 mm 0.00 in0.0 mm
06:22 PM 47.7°F8.7°C 30.0°F-1.1°C 50% 2.0 mph NE3.2 kmh NE 8.0 mph12.9 kmh 30.24 in1024.0 mb 0.00 in0.0 mm 0.00 in0.0 mm 0.00 in0.0 mm
06:24 PM 47.7°F8.7°C 30.5°F-0.8°C 51% 5.0 mph ENE8.0 kmh ENE 8.0 mph12.9 kmh 30.24 in1024.0 mb 0.00 in0.0 mm 0.00 in0.0 mm 0.00 in0.0 mm
06:26 PM 47.7°F8.7°C 30.5°F-0.8°C 51% 2.0 mph NE3.2 kmh NE 8.0 mph12.9 kmh 30.23 in1023.7 mb 0.00 in0.0 mm 0.00 in0.0 mm 0.00 in0.0 mm
06:28 PM 47.8°F8.8°C 30.1°F-1.1°C 50% 4.0 mph NE6.4 kmh NE 8.0 mph12.9 kmh 30.23 in1023.7 mb 0.00 in0.0 mm 0.00 in0.0 mm 0.00 in0.0 mm
06:30 PM 47.8°F8.8°C 30.1°F-1.1°C 50% 7.0 mph NE11.3 kmh NE 9.0 mph14.5 kmh 30.23 in1023.7 mb 0.00 in0.0 mm 0.00 in0.0 mm 0.00 in0.0 mm
06:32 PM 47.8°F8.8°C 30.1°F-1.1°C 50% 5.0 mph E8.0 kmh E 9.0 mph14.5 kmh 30.23 in1023.7 mb 0.00 in0.0 mm 0.00 in0.0 mm 0.00 in0.0 mm
06:34 PM 47.9°F8.8°C 29.7°F-1.3°C 49% 5.0 mph ENE8.0 kmh ENE 5.0 mph8.0 kmh 30.23 in1023.7 mb 0.00 in0.0 mm 0.00 in0.0 mm 0.00 in0.0 mm
06:36 PM 47.9°F8.8°C 29.7°F-1.3°C 49% 2.0 mph NE3.2 kmh NE 6.0 mph9.7 kmh 30.24 in1024.0 mb 0.00 in0.0 mm 0.00 in0.0 mm 0.00 in0.0 mm
06:38 PM 47.9°F8.8°C 29.7°F-1.3°C 49% 7.0 mph NE11.3 kmh NE 7.0 mph11.3 kmh 30.23 in1023.7 mb 0.00 in0.0 mm 0.00 in0.0 mm 0.00 in0.0 mm
06:40 PM 47.9°F8.8°C 30.2°F-1.0°C 50% 4.0 mph NE6.4 kmh NE 7.0 mph11.3 kmh 30.24 in1024.0 mb 0.00 in0.0 mm 0.00 in0.0 mm 0.00 in0.0 mm
06:42 PM 48.0°F8.9°C 29.8°F-1.2°C 49% 3.0 mph NE4.8 kmh NE 7.0 mph11.3 kmh 30.24 in1024.0 mb 0.00 in0.0 mm 0.00 in0.0 mm 0.00 in0.0 mm
06:44 PM 48.0°F8.9°C 29.8°F-1.2°C 49% 2.0 mph NE3.2 kmh NE 7.0 mph11.3 kmh 30.25 in1024.4 mb 0.00 in0.0 mm 0.00 in0.0 mm 0.00 in0.0 mm
06:46 PM 48.0°F8.9°C 29.8°F-1.2°C 49% 2.0 mph NE3.2 kmh NE 7.0 mph11.3 kmh 30.24 in1024.0 mb 0.00 in0.0 mm 0.00 in0.0 mm 0.00 in0.0 mm
06:48 PM 48.0°F8.9°C 30.3°F-0.9°C 50% 1.0 mph NE1.6 kmh NE 7.0 mph11.3 kmh 30.24 in1024.0 mb 0.00 in0.0 mm 0.00 in0.0 mm 0.00 in0.0 mm
06:50 PM 47.9°F8.8°C 29.7°F-1.3°C 49% 1.0 mph NE1.6 kmh NE 7.0 mph11.3 kmh 30.25 in1024.4 mb 0.00 in0.0 mm 0.00 in0.0 mm 0.00 in0.0 mm
06:52 PM 48.0°F8.9°C 29.8°F-1.2°C 49% 3.0 mph NE4.8 kmh NE 7.0 mph11.3 kmh 30.25 in1024.4 mb 0.00 in0.0 mm 0.00 in0.0 mm 0.00 in0.0 mm
06:54 PM 48.0°F8.9°C 29.8°F-1.2°C 49% 1.0 mph NE1.6 kmh NE 7.0 mph11.3 kmh 30.25 in1024.4 mb 0.00 in0.0 mm 0.00 in0.0 mm 0.00 in0.0 mm
06:56 PM 48.0°F8.9°C 30.3°F-0.9°C 50% Calm Calm 7.0 mph11.3 kmh 30.25 in1024.4 mb 0.00 in0.0 mm 0.00 in0.0 mm 0.00 in0.0 mm
06:58 PM 48.0°F8.9°C 30.3°F-0.9°C 50% 2.0 mph NE3.2 kmh NE 7.0 mph11.3 kmh 30.25 in1024.4 mb 0.00 in0.0 mm 0.00 in0.0 mm 0.00 in0.0 mm
07:00 PM 48.0°F8.9°C 30.3°F-0.9°C 50% 3.0 mph NNE4.8 kmh NNE 7.0 mph11.3 kmh 30.25 in1024.4 mb 0.00 in0.0 mm 0.00 in0.0 mm 0.00 in0.0 mm
07:02 PM 48.0°F8.9°C 30.3°F-0.9°C 50% 3.0 mph NNE4.8 kmh NNE 7.0 mph11.3 kmh 30.25 in1024.4 mb 0.00 in0.0 mm 0.00 in0.0 mm 0.00 in0.0 mm
07:04 PM 48.0°F8.9°C 30.3°F-0.9°C 50% 2.0 mph NNE3.2 kmh NNE 3.0 mph4.8 kmh 30.25 in1024.4 mb 0.00 in0.0 mm 0.00 in0.0 mm 0.00 in0.0 mm
07:06 PM 48.0°F8.9°C 29.8°F-1.2°C 49% 1.0 mph NE1.6 kmh NE 3.0 mph4.8 kmh 30.25 in1024.4 mb 0.00 in0.0 mm 0.00 in0.0 mm 0.00 in0.0 mm
07:08 PM 48.0°F8.9°C 29.8°F-1.2°C 49% 3.0 mph NNE4.8 kmh NNE 4.0 mph6.4 kmh 30.25 in1024.4 mb 0.00 in0.0 mm 0.00 in0.0 mm 0.00 in0.0 mm
07:10 PM 48.0°F8.9°C 29.8°F-1.2°C 49% 1.0 mph NE1.6 kmh NE 5.0 mph8.0 kmh 30.26 in1024.7 mb 0.00 in0.0 mm 0.00 in0.0 mm 0.00 in0.0 mm
07:12 PM 48.0°F8.9°C 29.8°F-1.2°C 49% 3.0 mph NNE4.8 kmh NNE 5.0 mph8.0 kmh 30.26 in1024.7 mb 0.00 in0.0 mm 0.00 in0.0 mm 0.00 in0.0 mm
07:14 PM 48.0°F8.9°C 29.8°F-1.2°C 49% 3.0 mph NNE4.8 kmh NNE 5.0 mph8.0 kmh 30.26 in1024.7 mb 0.00 in0.0 mm 0.00 in0.0 mm 0.00 in0.0 mm
07:16 PM 48.0°F8.9°C 29.8°F-1.2°C 49% 4.0 mph NE6.4 kmh NE 5.0 mph8.0 kmh 30.25 in1024.4 mb 0.00 in0.0 mm 0.00 in0.0 mm 0.00 in0.0 mm
07:18 PM 48.0°F8.9°C 29.8°F-1.2°C 49% 2.0 mph NE3.2 kmh NE 5.0 mph8.0 kmh 30.25 in1024.4 mb 0.00 in0.0 mm 0.00 in0.0 mm 0.00 in0.0 mm
07:20 PM 48.0°F8.9°C 30.3°F-0.9°C 50% Calm Calm 5.0 mph8.0 kmh 30.25 in1024.4 mb 0.00 in0.0 mm 0.00 in0.0 mm 0.00 in0.0 mm
07:22 PM 48.0°F8.9°C 30.3°F-0.9°C 50% 2.0 mph NE3.2 kmh NE 5.0 mph8.0 kmh 30.26 in1024.7 mb 0.00 in0.0 mm 0.00 in0.0 mm 0.00 in0.0 mm
07:24 PM 48.0°F8.9°C 30.3°F-0.9°C 50% 4.0 mph NNE6.4 kmh NNE 5.0 mph8.0 kmh 30.26 in1024.7 mb 0.00 in0.0 mm 0.00 in0.0 mm 0.00 in0.0 mm
07:26 PM 48.0°F8.9°C 30.3°F-0.9°C 50% 3.0 mph NNE4.8 kmh NNE 7.0 mph11.3 kmh 30.26 in1024.7 mb 0.00 in0.0 mm 0.00 in0.0 mm 0.00 in0.0 mm
07:28 PM 48.0°F8.9°C 30.3°F-0.9°C 50% 3.0 mph NNE4.8 kmh NNE 7.0 mph11.3 kmh 30.26 in1024.7 mb 0.00 in0.0 mm 0.00 in0.0 mm 0.00 in0.0 mm
07:30 PM 48.0°F8.9°C 30.3°F-0.9°C 50% 2.0 mph NE3.2 kmh NE 7.0 mph11.3 kmh 30.26 in1024.7 mb 0.00 in0.0 mm 0.00 in0.0 mm 0.00 in0.0 mm
07:32 PM 48.0°F8.9°C 30.3°F-0.9°C 50% 3.0 mph N4.8 kmh N 7.0 mph11.3 kmh 30.26 in1024.7 mb 0.00 in0.0 mm 0.00 in0.0 mm 0.00 in0.0 mm
07:34 PM 48.0°F8.9°C 30.3°F-0.9°C 50% 2.0 mph NE3.2 kmh NE 5.0 mph8.0 kmh 30.26 in1024.7 mb 0.00 in0.0 mm 0.00 in0.0 mm 0.00 in0.0 mm
07:36 PM 48.0°F8.9°C 30.3°F-0.9°C 50% 4.0 mph N6.4 kmh N 5.0 mph8.0 kmh 30.27 in1025.1 mb 0.00 in0.0 mm 0.00 in0.0 mm 0.00 in0.0 mm
07:38 PM 48.1°F8.9°C 30.4°F-0.9°C 50% 3.0 mph NNW4.8 kmh NNW 8.0 mph12.9 kmh 30.27 in1025.1 mb 0.00 in0.0 mm 0.00 in0.0 mm 0.00 in0.0 mm
07:40 PM 48.0°F8.9°C 30.3°F-0.9°C 50% 3.0 mph N4.8 kmh N 8.0 mph12.9 kmh 30.27 in1025.1 mb 0.00 in0.0 mm 0.00 in0.0 mm 0.00 in0.0 mm
07:42 PM 48.0°F8.9°C 30.3°F-0.9°C 50% 4.0 mph N6.4 kmh N 8.0 mph12.9 kmh 30.27 in1025.1 mb 0.00 in0.0 mm 0.00 in0.0 mm 0.00 in0.0 mm
07:44 PM 48.1°F8.9°C 30.4°F-0.9°C 50% 4.0 mph NE6.4 kmh NE 8.0 mph12.9 kmh 30.27 in1025.1 mb 0.00 in0.0 mm 0.00 in0.0 mm 0.00 in0.0 mm
07:46 PM 48.1°F8.9°C 30.4°F-0.9°C 50% 4.0 mph N6.4 kmh N 8.0 mph12.9 kmh 30.27 in1025.1 mb 0.00 in0.0 mm 0.00 in0.0 mm 0.00 in0.0 mm
07:48 PM 48.1°F8.9°C 30.4°F-0.9°C 50% 4.0 mph NNE6.4 kmh NNE 8.0 mph12.9 kmh 30.27 in1025.1 mb 0.00 in0.0 mm 0.00 in0.0 mm 0.00 in0.0 mm
07:50 PM 48.1°F8.9°C 30.4°F-0.9°C 50% 4.0 mph N6.4 kmh N 8.0 mph12.9 kmh 30.28 in1025.4 mb 0.00 in0.0 mm 0.00 in0.0 mm 0.00 in0.0 mm
07:52 PM 48.1°F8.9°C 30.4°F-0.9°C 50% 5.0 mph NNE8.0 kmh NNE 8.0 mph12.9 kmh 30.27 in1025.1 mb 0.00 in0.0 mm 0.00 in0.0 mm 0.00 in0.0 mm
07:54 PM 48.1°F8.9°C 30.4°F-0.9°C 50% 3.0 mph NNE4.8 kmh NNE 8.0 mph12.9 kmh 30.27 in1025.1 mb 0.00 in0.0 mm 0.00 in0.0 mm 0.00 in0.0 mm
07:56 PM 48.1°F8.9°C 30.4°F-0.9°C 50% 2.0 mph NNE3.2 kmh NNE 8.0 mph12.9 kmh 30.27 in1025.1 mb 0.00 in0.0 mm 0.00 in0.0 mm 0.00 in0.0 mm
07:58 PM 48.2°F9.0°C 30.5°F-0.8°C 50% 2.0 mph N3.2 kmh N 8.0 mph12.9 kmh 30.27 in1025.1 mb 0.00 in0.0 mm 0.00 in0.0 mm 0.00 in0.0 mm
08:00 PM 48.1°F8.9°C 30.4°F-0.9°C 50% 4.0 mph NE6.4 kmh NE 8.0 mph12.9 kmh 30.27 in1025.1 mb 0.00 in0.0 mm 0.00 in0.0 mm 0.00 in0.0 mm
08:02 PM 48.2°F9.0°C 30.5°F-0.8°C 50% 3.0 mph NNE4.8 kmh NNE 9.0 mph14.5 kmh 30.27 in1025.1 mb 0.00 in0.0 mm 0.00 in0.0 mm 0.00 in0.0 mm
08:04 PM 48.2°F9.0°C 30.5°F-0.8°C 50% 4.0 mph N6.4 kmh N 8.0 mph12.9 kmh 30.27 in1025.1 mb 0.00 in0.0 mm 0.00 in0.0 mm 0.00 in0.0 mm
08:06 PM 48.2°F9.0°C 30.5°F-0.8°C 50% 9.0 mph N14.5 kmh N 9.0 mph14.5 kmh 30.26 in1024.7 mb 0.00 in0.0 mm 0.00 in0.0 mm 0.00 in0.0 mm
08:08 PM 48.2°F9.0°C 30.5°F-0.8°C 50% 5.0 mph NNE8.0 kmh NNE 9.0 mph14.5 kmh 30.26 in1024.7 mb 0.00 in0.0 mm 0.00 in0.0 mm 0.00 in0.0 mm
08:10 PM 48.2°F9.0°C 30.5°F-0.8°C 50% 6.0 mph N9.7 kmh N 9.0 mph14.5 kmh 30.26 in1024.7 mb 0.00 in0.0 mm 0.00 in0.0 mm 0.00 in0.0 mm
08:12 PM 48.1°F8.9°C 30.4°F-0.9°C 50% 4.0 mph NE6.4 kmh NE 9.0 mph14.5 kmh 30.26 in1024.7 mb 0.00 in0.0 mm 0.00 in0.0 mm 0.00 in0.0 mm
08:14 PM 48.1°F8.9°C 30.4°F-0.9°C 50% 3.0 mph NE4.8 kmh NE 9.0 mph14.5 kmh 30.26 in1024.7 mb 0.00 in0.0 mm 0.00 in0.0 mm 0.00 in0.0 mm
08:16 PM 48.1°F8.9°C 30.8°F-0.7°C 51% 4.0 mph NE6.4 kmh NE 9.0 mph14.5 kmh 30.26 in1024.7 mb 0.00 in0.0 mm 0.00 in0.0 mm 0.00 in0.0 mm
08:18 PM 48.1°F8.9°C 30.4°F-0.9°C 50% 2.0 mph NE3.2 kmh NE 9.0 mph14.5 kmh 30.26 in1024.7 mb 0.00 in0.0 mm 0.00 in0.0 mm 0.00 in0.0 mm
08:20 PM 48.1°F8.9°C 30.8°F-0.7°C 51% 2.0 mph NE3.2 kmh NE 9.0 mph14.5 kmh 30.27 in1025.1 mb 0.00 in0.0 mm 0.00 in0.0 mm 0.00 in0.0 mm
08:22 PM 48.1°F8.9°C 30.8°F-0.7°C 51% 2.0 mph NNE3.2 kmh NNE 9.0 mph14.5 kmh 30.27 in1025.1 mb 0.00 in0.0 mm 0.00 in0.0 mm 0.00 in0.0 mm
08:24 PM 48.1°F8.9°C 30.4°F-0.9°C 50% 3.0 mph NE4.8 kmh NE 9.0 mph14.5 kmh 30.27 in1025.1 mb 0.00 in0.0 mm 0.00 in0.0 mm 0.00 in0.0 mm
08:26 PM 48.1°F8.9°C 30.4°F-0.9°C 50% 2.0 mph NE3.2 kmh NE 9.0 mph14.5 kmh 30.27 in1025.1 mb 0.00 in0.0 mm 0.00 in0.0 mm 0.00 in0.0 mm
08:28 PM 48.1°F8.9°C 30.4°F-0.9°C 50% 1.0 mph NE1.6 kmh NE 9.0 mph14.5 kmh 30.28 in1025.4 mb 0.00 in0.0 mm 0.00 in0.0 mm 0.00 in0.0 mm
08:30 PM 48.1°F8.9°C 30.4°F-0.9°C 50% 2.0 mph ENE3.2 kmh ENE 9.0 mph14.5 kmh 30.28 in1025.4 mb 0.00 in0.0 mm 0.00 in0.0 mm 0.00 in0.0 mm
08:32 PM 48.1°F8.9°C 30.4°F-0.9°C 50% 2.0 mph N3.2 kmh N 9.0 mph14.5 kmh 30.28 in1025.4 mb 0.00 in0.0 mm 0.00 in0.0 mm 0.00 in0.0 mm
08:34 PM 48.1°F8.9°C 30.4°F-0.9°C 50% 3.0 mph NE4.8 kmh NE 8.0 mph12.9 kmh 30.27 in1025.1 mb 0.00 in0.0 mm 0.00 in0.0 mm 0.00 in0.0 mm
08:36 PM 48.1°F8.9°C 30.4°F-0.9°C 50% 1.0 mph NNE1.6 kmh NNE 8.0 mph12.9 kmh 30.27 in1025.1 mb 0.00 in0.0 mm 0.00 in0.0 mm 0.00 in0.0 mm
08:38 PM 48.1°F8.9°C 30.4°F-0.9°C 50% 1.0 mph NE1.6 kmh NE 8.0 mph12.9 kmh 30.27 in1025.1 mb 0.00 in0.0 mm 0.00 in0.0 mm 0.00 in0.0 mm
08:40 PM 48.1°F8.9°C 30.8°F-0.7°C 51% 4.0 mph NE6.4 kmh NE 8.0 mph12.9 kmh 30.26 in1024.7 mb 0.00 in0.0 mm 0.00 in0.0 mm 0.00 in0.0 mm
08:42 PM 48.1°F8.9°C 30.8°F-0.7°C 51% 6.0 mph NE9.7 kmh NE 8.0 mph12.9 kmh 30.26 in1024.7 mb 0.00 in0.0 mm 0.00 in0.0 mm 0.00 in0.0 mm
08:44 PM 48.1°F8.9°C 30.8°F-0.7°C 51% 2.0 mph NE3.2 kmh NE 8.0 mph12.9 kmh 30.26 in1024.7 mb 0.00 in0.0 mm 0.00 in0.0 mm 0.00 in0.0 mm
08:46 PM 48.1°F8.9°C 30.8°F-0.7°C 51% 3.0 mph NE4.8 kmh NE 8.0 mph12.9 kmh 30.26 in1024.7 mb 0.00 in0.0 mm 0.00 in0.0 mm 0.00 in0.0 mm
08:48 PM 48.1°F8.9°C 31.3°F-0.4°C 52% 6.0 mph N9.7 kmh N 8.0 mph12.9 kmh 30.26 in1024.7 mb 0.00 in0.0 mm 0.00 in0.0 mm 0.00 in0.0 mm
08:50 PM 48.1°F8.9°C 31.3°F-0.4°C 52% 4.0 mph NE6.4 kmh NE 9.0 mph14.5 kmh 30.25 in1024.4 mb 0.00 in0.0 mm 0.00 in0.0 mm 0.00 in0.0 mm
08:52 PM 48.0°F8.9°C 31.2°F-0.4°C 52% 5.0 mph NE8.0 kmh NE 10.0 mph16.1 kmh 30.24 in1024.0 mb 0.00 in0.0 mm 0.00 in0.0 mm 0.00 in0.0 mm
08:54 PM 48.0°F8.9°C 31.7°F-0.2°C 53% 5.0 mph NE8.0 kmh NE 10.0 mph16.1 kmh 30.24 in1024.0 mb 0.00 in0.0 mm 0.00 in0.0 mm 0.00 in0.0 mm
08:56 PM 47.9°F8.8°C 31.6°F-0.2°C 53% 6.0 mph NE9.7 kmh NE 11.0 mph17.7 kmh 30.24 in1024.0 mb 0.00 in0.0 mm 0.00 in0.0 mm 0.00 in0.0 mm
08:58 PM 47.9°F8.8°C 31.6°F-0.2°C 53% 7.0 mph ENE11.3 kmh ENE 11.0 mph17.7 kmh 30.24 in1024.0 mb 0.00 in0.0 mm 0.00 in0.0 mm 0.00 in0.0 mm
09:00 PM 47.9°F8.8°C 32.1°F0.1°C 54% 3.0 mph NE4.8 kmh NE 11.0 mph17.7 kmh 30.23 in1023.7 mb 0.00 in0.0 mm 0.00 in0.0 mm 0.00 in0.0 mm
09:02 PM 47.8°F8.8°C 32.0°F0.0°C 54% 2.0 mph NE3.2 kmh NE 11.0 mph17.7 kmh 30.23 in1023.7 mb 0.00 in0.0 mm 0.00 in0.0 mm 0.00 in0.0 mm
09:04 PM 47.8°F8.8°C 32.0°F0.0°C 54% 3.0 mph N4.8 kmh N 7.0 mph11.3 kmh 30.23 in1023.7 mb 0.00 in0.0 mm 0.00 in0.0 mm 0.00 in0.0 mm
09:06 PM 47.7°F8.7°C 32.3°F0.2°C 55% 4.0 mph NNE6.4 kmh NNE 9.0 mph14.5 kmh 30.21 in1023.0 mb 0.00 in0.0 mm 0.00 in0.0 mm 0.00 in0.0 mm
09:08 PM 47.7°F8.7°C 32.3°F0.2°C 55% 3.0 mph NE4.8 kmh NE 9.0 mph14.5 kmh 30.23 in1023.7 mb 0.00 in0.0 mm 0.00 in0.0 mm 0.00 in0.0 mm
09:10 PM 47.6°F8.7°C 32.3°F0.2°C 55% 1.0 mph NNW1.6 kmh NNW 9.0 mph14.5 kmh 30.25 in1024.4 mb 0.00 in0.0 mm 0.00 in0.0 mm 0.00 in0.0 mm
09:12 PM 47.6°F8.7°C 32.3°F0.2°C 55% 4.0 mph NE6.4 kmh NE 9.0 mph14.5 kmh 30.25 in1024.4 mb 0.00 in0.0 mm 0.00 in0.0 mm 0.00 in0.0 mm
09:14 PM 47.6°F8.7°C 32.3°F0.2°C 55% 4.0 mph NE6.4 kmh NE 9.0 mph14.5 kmh 30.25 in1024.4 mb 0.00 in0.0 mm 0.00 in0.0 mm 0.00 in0.0 mm
09:16 PM 47.6°F8.7°C 32.3°F0.2°C 55% 2.0 mph ENE3.2 kmh ENE 9.0 mph14.5 kmh 30.25 in1024.4 mb 0.00 in0.0 mm 0.00 in0.0 mm 0.00 in0.0 mm
09:18 PM 47.6°F8.7°C 32.3°F0.2°C 55% 3.0 mph NNE4.8 kmh NNE 9.0 mph14.5 kmh 30.25 in1024.4 mb 0.00 in0.0 mm 0.00 in0.0 mm 0.00 in0.0 mm
09:20 PM 47.6°F8.7°C 32.3°F0.2°C 55% 3.0 mph NNE4.8 kmh NNE 9.0 mph14.5 kmh 30.26 in1024.7 mb 0.00 in0.0 mm 0.00 in0.0 mm 0.00 in0.0 mm
09:22 PM 47.6°F8.7°C 32.3°F0.2°C 55% 3.0 mph NE4.8 kmh NE 9.0 mph14.5 kmh 30.26 in1024.7 mb 0.00 in0.0 mm 0.00 in0.0 mm 0.00 in0.0 mm
09:24 PM 47.6°F8.7°C 32.3°F0.2°C 55% 2.0 mph NE3.2 kmh NE 9.0 mph14.5 kmh 30.27 in1025.1 mb 0.00 in0.0 mm 0.00 in0.0 mm 0.00 in0.0 mm
09:26 PM 47.7°F8.7°C 32.3°F0.2°C 55% 2.0 mph NE3.2 kmh NE 9.0 mph14.5 kmh 30.26 in1024.7 mb 0.00 in0.0 mm 0.00 in0.0 mm 0.00 in0.0 mm
09:28 PM 47.7°F8.7°C 32.3°F0.2°C 55% 3.0 mph NE4.8 kmh NE 9.0 mph14.5 kmh 30.25 in1024.4 mb 0.00 in0.0 mm 0.00 in0.0 mm 0.00 in0.0 mm
09:30 PM 47.7°F8.7°C 32.8°F0.4°C 56% 4.0 mph NE6.4 kmh NE 9.0 mph14.5 kmh 30.25 in1024.4 mb 0.00 in0.0 mm 0.00 in0.0 mm 0.00 in0.0 mm
09:32 PM 47.6°F8.7°C 32.7°F0.4°C 56% 2.0 mph NE3.2 kmh NE 9.0 mph14.5 kmh 30.25 in1024.4 mb 0.00 in0.0 mm 0.00 in0.0 mm 0.00 in0.0 mm
09:34 PM 47.6°F8.7°C 32.3°F0.2°C 55% 4.0 mph ENE6.4 kmh ENE 9.0 mph14.5 kmh 30.25 in1024.4 mb 0.00 in0.0 mm 0.00 in0.0 mm 0.00 in0.0 mm
09:36 PM 47.6°F8.7°C 32.3°F0.2°C 55% 1.0 mph N1.6 kmh N 9.0 mph14.5 kmh 30.25 in1024.4 mb 0.00 in0.0 mm 0.00 in0.0 mm 0.00 in0.0 mm
09:38 PM 47.6°F8.7°C 32.7°F0.4°C 56% 2.0 mph NE3.2 kmh NE 9.0 mph14.5 kmh 30.25 in1024.4 mb 0.00 in0.0 mm 0.00 in0.0 mm 0.00 in0.0 mm
09:40 PM 47.6°F8.7°C 32.3°F0.2°C 55% 7.0 mph NNE11.3 kmh NNE 9.0 mph14.5 kmh 30.25 in1024.4 mb 0.00 in0.0 mm 0.00 in0.0 mm 0.00 in0.0 mm
09:42 PM 47.6°F8.7°C 32.7°F0.4°C 56% 3.0 mph NE4.8 kmh NE 9.0 mph14.5 kmh 30.25 in1024.4 mb 0.00 in0.0 mm 0.00 in0.0 mm 0.00 in0.0 mm
09:44 PM 47.7°F8.7°C 32.3°F0.2°C 55% 3.0 mph NNE4.8 kmh NNE 9.0 mph14.5 kmh 30.25 in1024.4 mb 0.00 in0.0 mm 0.00 in0.0 mm 0.00 in0.0 mm
09:46 PM 47.7°F8.7°C 32.3°F0.2°C 55% 6.0 mph NNE9.7 kmh NNE 9.0 mph14.5 kmh 30.25 in1024.4 mb 0.00 in0.0 mm 0.00 in0.0 mm 0.00 in0.0 mm
09:48 PM 47.7°F8.7°C 32.8°F0.4°C 56% 5.0 mph N8.0 kmh N 9.0 mph14.5 kmh 30.25 in1024.4 mb 0.00 in0.0 mm 0.00 in0.0 mm 0.00 in0.0 mm
09:50 PM 47.7°F8.7°C 32.3°F0.2°C 55% 2.0 mph NE3.2 kmh NE 9.0 mph14.5 kmh 30.25 in1024.4 mb 0.00 in0.0 mm 0.00 in0.0 mm 0.00 in0.0 mm
09:52 PM 47.7°F8.7°C 32.8°F0.4°C 56% 5.0 mph ENE8.0 kmh ENE 9.0 mph14.5 kmh 30.25 in1024.4 mb 0.00 in0.0 mm 0.00 in0.0 mm 0.00 in0.0 mm
09:54 PM 47.7°F8.7°C 32.8°F0.4°C 56% 5.0 mph ENE8.0 kmh ENE 9.0 mph14.5 kmh 30.24 in1024.0 mb 0.00 in0.0 mm 0.00 in0.0 mm 0.00 in0.0 mm
09:56 PM 47.7°F8.7°C 32.8°F0.4°C 56% 3.0 mph NNE4.8 kmh NNE 9.0 mph14.5 kmh 30.25 in1024.4 mb 0.00 in0.0 mm 0.00 in0.0 mm 0.00 in0.0 mm
09:58 PM 47.7°F8.7°C 32.8°F0.4°C 56% 4.0 mph NE6.4 kmh NE 9.0 mph14.5 kmh 30.25 in1024.4 mb 0.00 in0.0 mm 0.00 in0.0 mm 0.00 in0.0 mm
10:00 PM 47.8°F8.8°C 32.9°F0.5°C 56% 2.0 mph NE3.2 kmh NE 9.0 mph14.5 kmh 30.25 in1024.4 mb 0.00 in0.0 mm 0.00 in0.0 mm 0.00 in0.0 mm
10:02 PM 47.8°F8.8°C 32.9°F0.5°C 56% 3.0 mph NNE4.8 kmh NNE 9.0 mph14.5 kmh 30.25 in1024.4 mb 0.00 in0.0 mm 0.00 in0.0 mm 0.00 in0.0 mm
10:03 PM 47.8°F8.8°C 32.9°F0.5°C 56% 4.0 mph NE6.4 kmh NE 7.0 mph11.3 kmh 30.25 in1024.4 mb 0.00 in0.0 mm 0.00 in0.0 mm 0.00 in0.0 mm
10:06 PM 47.8°F8.8°C 32.9°F0.5°C 56% 1.0 mph NNE1.6 kmh NNE 7.0 mph11.3 kmh 30.26 in1024.7 mb 0.00 in0.0 mm 0.00 in0.0 mm 0.00 in0.0 mm
10:08 PM 47.8°F8.8°C 32.9°F0.5°C 56% 2.0 mph NE3.2 kmh NE 7.0 mph11.3 kmh 30.26 in1024.7 mb 0.00 in0.0 mm 0.00 in0.0 mm 0.00 in0.0 mm
10:10 PM 47.8°F8.8°C 32.4°F0.2°C 55% 5.0 mph NE8.0 kmh NE 7.0 mph11.3 kmh 30.26 in1024.7 mb 0.00 in0.0 mm 0.00 in0.0 mm 0.00 in0.0 mm
10:12 PM 47.8°F8.8°C 32.0°F0.0°C 54% 9.0 mph NE14.5 kmh NE 10.0 mph16.1 kmh 30.25 in1024.4 mb 0.00 in0.0 mm 0.00 in0.0 mm 0.00 in0.0 mm
10:14 PM 47.9°F8.8°C 32.1°F0.1°C 54% 5.0 mph NE8.0 kmh NE 10.0 mph16.1 kmh 30.25 in1024.4 mb 0.00 in0.0 mm 0.00 in0.0 mm 0.00 in0.0 mm
10:16 PM 47.9°F8.8°C 32.1°F0.1°C 54% 1.0 mph NNE1.6 kmh NNE 10.0 mph16.1 kmh 30.25 in1024.4 mb 0.00 in0.0 mm 0.00 in0.0 mm 0.00 in0.0 mm
10:18 PM 47.9°F8.8°C 32.1°F0.1°C 54% 4.0 mph NNE6.4 kmh NNE 10.0 mph16.1 kmh 30.25 in1024.4 mb 0.00 in0.0 mm 0.00 in0.0 mm 0.00 in0.0 mm
10:20 PM 48.0°F8.9°C 32.2°F0.1°C 54% 11.0 mph NE17.7 kmh NE 11.0 mph17.7 kmh 30.24 in1024.0 mb 0.00 in0.0 mm 0.00 in0.0 mm 0.00 in0.0 mm
10:22 PM 48.0°F8.9°C 31.2°F-0.4°C 52% 11.0 mph NNE17.7 kmh NNE 15.0 mph24.1 kmh 30.23 in1023.7 mb 0.00 in0.0 mm 0.00 in0.0 mm 0.00 in0.0 mm
10:24 PM 48.0°F8.9°C 31.2°F-0.4°C 52% 10.0 mph NE16.1 kmh NE 15.0 mph24.1 kmh 30.23 in1023.7 mb 0.00 in0.0 mm 0.00 in0.0 mm 0.00 in0.0 mm
10:26 PM 48.0°F8.9°C 31.2°F-0.4°C 52% 3.0 mph NE4.8 kmh NE 15.0 mph24.1 kmh 30.23 in1023.7 mb 0.00 in0.0 mm 0.00 in0.0 mm 0.00 in0.0 mm
10:28 PM 48.0°F8.9°C 31.2°F-0.4°C 52% 4.0 mph NE6.4 kmh NE 15.0 mph24.1 kmh 30.25 in1024.4 mb 0.00 in0.0 mm 0.00 in0.0 mm 0.00 in0.0 mm
10:30 PM 48.0°F8.9°C 31.2°F-0.4°C 52% 5.0 mph NE8.0 kmh NE 15.0 mph24.1 kmh 30.24 in1024.0 mb 0.00 in0.0 mm 0.00 in0.0 mm 0.00 in0.0 mm
10:32 PM 48.0°F8.9°C 30.8°F-0.7°C 51% 4.0 mph ENE6.4 kmh ENE 18.0 mph29.0 kmh 30.23 in1023.7 mb 0.00 in0.0 mm 0.00 in0.0 mm 0.00 in0.0 mm
10:34 PM 47.9°F8.8°C 31.1°F-0.5°C 52% 6.0 mph NE9.7 kmh NE 12.0 mph19.3 kmh 30.24 in1024.0 mb 0.00 in0.0 mm 0.00 in0.0 mm 0.00 in0.0 mm
10:36 PM 48.0°F8.9°C 30.8°F-0.7°C 51% 11.0 mph NE17.7 kmh NE 12.0 mph19.3 kmh 30.24 in1024.0 mb 0.00 in0.0 mm 0.00 in0.0 mm 0.00 in0.0 mm
10:38 PM 48.0°F8.9°C 30.8°F-0.7°C 51% 3.0 mph ENE4.8 kmh ENE 12.0 mph19.3 kmh 30.25 in1024.4 mb 0.00 in0.0 mm 0.00 in0.0 mm 0.00 in0.0 mm
10:40 PM 47.9°F8.8°C 31.1°F-0.5°C 52% 3.0 mph NE4.8 kmh NE 12.0 mph19.3 kmh 30.25 in1024.4 mb 0.00 in0.0 mm 0.00 in0.0 mm 0.00 in0.0 mm
10:42 PM 48.0°F8.9°C 30.8°F-0.7°C 51% 7.0 mph N11.3 kmh N 12.0 mph19.3 kmh 30.25 in1024.4 mb 0.00 in0.0 mm 0.00 in0.0 mm 0.00 in0.0 mm
10:44 PM 48.0°F8.9°C 30.8°F-0.7°C 51% 7.0 mph NE11.3 kmh NE 12.0 mph19.3 kmh 30.25 in1024.4 mb 0.00 in0.0 mm 0.00 in0.0 mm 0.00 in0.0 mm
10:46 PM 48.0°F8.9°C 31.2°F-0.4°C 52% 10.0 mph NE16.1 kmh NE 12.0 mph19.3 kmh 30.24 in1024.0 mb 0.00 in0.0 mm 0.00 in0.0 mm 0.00 in0.0 mm
10:48 PM 48.0°F8.9°C 30.8°F-0.7°C 51% 10.0 mph ENE16.1 kmh ENE 12.0 mph19.3 kmh 30.24 in1024.0 mb 0.00 in0.0 mm 0.00 in0.0 mm 0.00 in0.0 mm
10:50 PM 48.0°F8.9°C 30.8°F-0.7°C 51% 4.0 mph ENE6.4 kmh ENE 12.0 mph19.3 kmh 30.24 in1024.0 mb 0.00 in0.0 mm 0.00 in0.0 mm 0.00 in0.0 mm
10:52 PM 47.9°F8.8°C 31.1°F-0.5°C 52% 9.0 mph NE14.5 kmh NE 12.0 mph19.3 kmh 30.24 in1024.0 mb 0.00 in0.0 mm 0.00 in0.0 mm 0.00 in0.0 mm
10:54 PM 47.9°F8.8°C 31.1°F-0.5°C 52% 11.0 mph NE17.7 kmh NE 12.0 mph19.3 kmh 30.24 in1024.0 mb 0.00 in0.0 mm 0.00 in0.0 mm 0.00 in0.0 mm
10:56 PM 48.0°F8.9°C 31.2°F-0.4°C 52% 3.0 mph E4.8 kmh E 12.0 mph19.3 kmh 30.25 in1024.4 mb 0.00 in0.0 mm 0.00 in0.0 mm 0.00 in0.0 mm
10:58 PM 47.9°F8.8°C 31.1°F-0.5°C 52% 4.0 mph NE6.4 kmh NE 12.0 mph19.3 kmh 30.24 in1024.0 mb 0.00 in0.0 mm 0.00 in0.0 mm 0.00 in0.0 mm
11:00 PM 47.9°F8.8°C 31.1°F-0.5°C 52% 5.0 mph E8.0 kmh E 12.0 mph19.3 kmh 30.24 in1024.0 mb 0.00 in0.0 mm 0.00 in0.0 mm 0.00 in0.0 mm
11:02 PM 48.0°F8.9°C 31.2°F-0.4°C 52% 5.0 mph NE8.0 kmh NE 12.0 mph19.3 kmh 30.24 in1024.0 mb 0.00 in0.0 mm 0.00 in0.0 mm 0.00 in0.0 mm
11:04 PM 48.0°F8.9°C 31.2°F-0.4°C 52% 11.0 mph NE17.7 kmh NE 11.0 mph17.7 kmh 30.24 in1024.0 mb 0.00 in0.0 mm 0.00 in0.0 mm 0.00 in0.0 mm
11:06 PM 48.0°F8.9°C 31.2°F-0.4°C 52% 5.0 mph NE8.0 kmh NE 11.0 mph17.7 kmh 30.24 in1024.0 mb 0.00 in0.0 mm 0.00 in0.0 mm 0.00 in0.0 mm
11:08 PM 48.0°F8.9°C 31.2°F-0.4°C 52% 2.0 mph NE3.2 kmh NE 11.0 mph17.7 kmh 30.24 in1024.0 mb 0.00 in0.0 mm 0.00 in0.0 mm 0.00 in0.0 mm
11:10 PM 48.0°F8.9°C 31.2°F-0.4°C 52% 2.0 mph NE3.2 kmh NE 11.0 mph17.7 kmh 30.24 in1024.0 mb 0.00 in0.0 mm 0.00 in0.0 mm 0.00 in0.0 mm
11:12 PM 48.0°F8.9°C 31.2°F-0.4°C 52% 2.0 mph NE3.2 kmh NE 11.0 mph17.7 kmh 30.24 in1024.0 mb 0.00 in0.0 mm 0.00 in0.0 mm 0.00 in0.0 mm
11:14 PM 48.0°F8.9°C 31.2°F-0.4°C 52% 5.0 mph NE8.0 kmh NE 11.0 mph17.7 kmh 30.25 in1024.4 mb 0.00 in0.0 mm 0.00 in0.0 mm 0.00 in0.0 mm
11:16 PM 48.1°F8.9°C 30.8°F-0.7°C 51% 3.0 mph ENE4.8 kmh ENE 11.0 mph17.7 kmh 30.24 in1024.0 mb 0.00 in0.0 mm 0.00 in0.0 mm 0.00 in0.0 mm
11:18 PM 48.1°F8.9°C 30.8°F-0.7°C 51% 6.0 mph NE9.7 kmh NE 11.0 mph17.7 kmh 30.24 in1024.0 mb 0.00 in0.0 mm 0.00 in0.0 mm 0.00 in0.0 mm
11:20 PM 48.1°F8.9°C 30.8°F-0.7°C 51% 3.0 mph NE4.8 kmh NE 11.0 mph17.7 kmh 30.24 in1024.0 mb 0.00 in0.0 mm 0.00 in0.0 mm 0.00 in0.0 mm
11:22 PM 48.2°F9.0°C 30.9°F-0.6°C 51% 2.0 mph NE3.2 kmh NE 11.0 mph17.7 kmh 30.24 in1024.0 mb 0.00 in0.0 mm 0.00 in0.0 mm 0.00 in0.0 mm
11:24 PM 48.1°F8.9°C 30.8°F-0.7°C 51% 4.0 mph NE6.4 kmh NE 11.0 mph17.7 kmh 30.25 in1024.4 mb 0.00 in0.0 mm 0.00 in0.0 mm 0.00 in0.0 mm
11:26 PM 48.2°F9.0°C 30.9°F-0.6°C 51% 8.0 mph ENE12.9 kmh ENE 11.0 mph17.7 kmh 30.25 in1024.4 mb 0.00 in0.0 mm 0.00 in0.0 mm 0.00 in0.0 mm
11:28 PM 48.2°F9.0°C 30.9°F-0.6°C 51% 4.0 mph NE6.4 kmh NE 11.0 mph17.7 kmh 30.25 in1024.4 mb 0.00 in0.0 mm 0.00 in0.0 mm 0.00 in0.0 mm
11:30 PM 48.2°F9.0°C 30.9°F-0.6°C 51% 2.0 mph ENE3.2 kmh ENE 11.0 mph17.7 kmh 30.25 in1024.4 mb 0.00 in0.0 mm 0.00 in0.0 mm 0.00 in0.0 mm
11:32 PM 48.2°F9.0°C 30.9°F-0.6°C 51% 2.0 mph ENE3.2 kmh ENE 11.0 mph17.7 kmh 30.26 in1024.7 mb 0.00 in0.0 mm 0.00 in0.0 mm 0.00 in0.0 mm
11:34 PM 48.3°F9.1°C 30.5°F-0.8°C 50% 3.0 mph NE4.8 kmh NE 5.0 mph8.0 kmh 30.26 in1024.7 mb 0.00 in0.0 mm 0.00 in0.0 mm 0.00 in0.0 mm
11:36 PM 48.3°F9.1°C 30.5°F-0.8°C 50% 3.0 mph NE4.8 kmh NE 5.0 mph8.0 kmh 30.26 in1024.7 mb 0.00 in0.0 mm 0.00 in0.0 mm 0.00 in0.0 mm
11:38 PM 48.3°F9.1°C 30.5°F-0.8°C 50% 3.0 mph NE4.8 kmh NE 5.0 mph8.0 kmh 30.26 in1024.7 mb 0.00 in0.0 mm 0.00 in0.0 mm 0.00 in0.0 mm
11:39 PM 48.3°F9.1°C 30.5°F-0.8°C 50% 3.0 mph NE4.8 kmh NE 8.0 mph12.9 kmh 30.25 in1024.4 mb 0.00 in0.0 mm 0.00 in0.0 mm 0.00 in0.0 mm
11:42 PM 48.3°F9.1°C 30.5°F-0.8°C 50% 3.0 mph ENE4.8 kmh ENE 9.0 mph14.5 kmh 30.25 in1024.4 mb 0.00 in0.0 mm 0.00 in0.0 mm 0.00 in0.0 mm
11:44 PM 48.4°F9.1°C 30.6°F-0.8°C 50% 4.0 mph E6.4 kmh E 9.0 mph14.5 kmh 30.25 in1024.4 mb 0.00 in0.0 mm 0.00 in0.0 mm 0.00 in0.0 mm
11:46 PM 48.4°F9.1°C 30.6°F-0.8°C 50% 4.0 mph NE6.4 kmh NE 9.0 mph14.5 kmh 30.24 in1024.0 mb 0.00 in0.0 mm 0.00 in0.0 mm 0.00 in0.0 mm
11:48 PM 48.4°F9.1°C 30.6°F-0.8°C 50% 1.0 mph NE1.6 kmh NE 9.0 mph14.5 kmh 30.24 in1024.0 mb 0.00 in0.0 mm 0.00 in0.0 mm 0.00 in0.0 mm
11:50 PM 48.3°F9.1°C 31.0°F-0.6°C 51% 3.0 mph E4.8 kmh E 9.0 mph14.5 kmh 30.24 in1024.0 mb 0.00 in0.0 mm 0.00 in0.0 mm 0.00 in0.0 mm
11:51 PM 48.3°F9.1°C 31.0°F-0.6°C 51% 5.0 mph NE8.0 kmh NE 9.0 mph14.5 kmh 30.24 in1024.0 mb 0.00 in0.0 mm 0.00 in0.0 mm 0.00 in0.0 mm
11:54 PM 48.3°F9.1°C 30.5°F-0.8°C 50% 4.0 mph ENE6.4 kmh ENE 9.0 mph14.5 kmh 30.25 in1024.4 mb 0.00 in0.0 mm 0.00 in0.0 mm 0.00 in0.0 mm
11:56 PM 48.3°F9.1°C 30.5°F-0.8°C 50% 3.0 mph NE4.8 kmh NE 9.0 mph14.5 kmh 30.24 in1024.0 mb 0.00 in0.0 mm 0.00 in0.0 mm 0.00 in0.0 mm
11:58 PM 48.4°F9.1°C 31.1°F-0.5°C 51% 3.0 mph NE4.8 kmh NE 9.0 mph14.5 kmh 30.24 in1024.0 mb 0.00 in0.0 mm 0.00 in0.0 mm 0.00 in0.0 mm